Observation data for Palo Duro Reservoir 1NW on 10/17/2019      Previous  Date       Current Mesonet Observations  Soil Data  Daily Summary Page  Observations in Plain Language
KPD4 170500Z 20008KT 09/01 A3005 RMK A01 T00900011  RH  058%=      5-min Rain = 0
KPD4 170501Z 20008KT 09/01 A3005 RMK A01 T00880011  RH  058%=      5-min Rain = 0
KPD4 170502Z 20008KT 09/01 A3005 RMK A01 T00870011  RH  059%=      5-min Rain = 0
KPD4 170503Z 19008KT 09/01 A3005 RMK A01 T00860011  RH  059%=      5-min Rain = 0
KPD4 170504Z 19008KT 09/01 A3005 RMK A01 T00860011  RH  059%=      5-min Rain = 0
KPD4 170505Z 19008KT 09/01 A3005 RMK A01 T00850011  RH  059%=      5-min Rain = 0
KPD4 170506Z 19008KT 09/01 A3005 RMK A01 T00850011  RH  060%=      5-min Rain = 0
KPD4 170507Z 19008KT 09/01 A3005 RMK A01 T00850011  RH  060%=      5-min Rain = 0
KPD4 170508Z 19008KT 09/01 A3005 RMK A01 T00850011  RH  060%=      5-min Rain = 0
KPD4 170509Z 19008KT 09/01 A3005 RMK A01 T00850011  RH  060%=      5-min Rain = 0
KPD4 170510Z 19008KT 09/01 A3005 RMK A01 T00850011  RH  060%=      5-min Rain = 0
KPD4 170511Z 19008KT 08/01 A3005 RMK A01 T00840011  RH  060%=      5-min Rain = 0
KPD4 170512Z 19008KT 08/01 A3005 RMK A01 T00840011  RH  060%=      5-min Rain = 0
KPD4 170513Z 19008KT 08/01 A3005 RMK A01 T00840011  RH  060%=      5-min Rain = 0
KPD4 170514Z 19008KT 08/01 A3005 RMK A01 T00840011  RH  060%=      5-min Rain = 0
KPD4 170515Z 19008KT 08/01 A3005 RMK A01 T00830011  RH  060%=      5-min Rain = 0
KPD4 170516Z 19008KT 08/01 A3005 RMK A01 T00830011  RH  060%=      5-min Rain = 0
KPD4 170517Z 18008KT 08/01 A3005 RMK A01 T00830011  RH  060%=      5-min Rain = 0
KPD4 170518Z 18008KT 08/01 A3005 RMK A01 T00830011  RH  060%=      5-min Rain = 0
KPD4 170519Z 18008KT 08/01 A3005 RMK A01 T00830011  RH  061%=      5-min Rain = 0
KPD4 170520Z 18008KT 08/01 A3005 RMK A01 T00820011  RH  061%=      5-min Rain = 0
KPD4 170521Z 18008KT 08/01 A3005 RMK A01 T00830011  RH  061%=      5-min Rain = 0
KPD4 170522Z 18008KT 08/01 A3005 RMK A01 T00830011  RH  060%=      5-min Rain = 0
KPD4 170523Z 17008KT 08/01 A3005 RMK A01 T00830011  RH  060%=      5-min Rain = 0
KPD4 170524Z 17008KT 08/01 A3004 RMK A01 T00830011  RH  060%=      5-min Rain = 0
KPD4 170525Z 18008KT 09/01 A3004 RMK A01 T00850012  RH  060%=      5-min Rain = 0
KPD4 170526Z 17009KT 09/01 A3004 RMK A01 T00860012  RH  060%=      5-min Rain = 0
KPD4 170527Z 18009KT 09/01 A3004 RMK A01 T00870012  RH  060%=      5-min Rain = 0
KPD4 170528Z 17008KT 09/01 A3004 RMK A01 T00870012  RH  059%=      5-min Rain = 0
KPD4 170529Z 17008KT 09/01 A3004 RMK A01 T00860012  RH  060%=      5-min Rain = 0
KPD4 170530Z 17009KT 08/01 A3004 RMK A01 T00830011  RH  060%=      5-min Rain = 0
KPD4 170531Z 18008KT 08/01 A3004 RMK A01 T00820011  RH  061%=      5-min Rain = 0
KPD4 170532Z 18009KT 08/01 A3004 RMK A01 T00810011  RH  061%=      5-min Rain = 0
KPD4 170533Z 18009KT 08/01 A3004 RMK A01 T00810011  RH  062%=      5-min Rain = 0
KPD4 170534Z 18009KT 08/01 A3004 RMK A01 T00810012  RH  062%=      5-min Rain = 0
KPD4 170535Z 18009KT 08/01 A3004 RMK A01 T00810012  RH  062%=      5-min Rain = 0
KPD4 170536Z 18009KT 08/01 A3004 RMK A01 T00820012  RH  061%=      5-min Rain = 0
KPD4 170537Z 18009KT 08/01 A3004 RMK A01 T00820012  RH  061%=      5-min Rain = 0
KPD4 170538Z 18009KT 08/01 A3004 RMK A01 T00810012  RH  062%=      5-min Rain = 0
KPD4 170539Z 18009KT 08/01 A3004 RMK A01 T00800011  RH  062%=      5-min Rain = 0
KPD4 170540Z 18009KT 08/01 A3004 RMK A01 T00790011  RH  062%=      5-min Rain = 0
KPD4 170541Z 18009KT 08/01 A3003 RMK A01 T00780010  RH  062%=      5-min Rain = 0
KPD4 170542Z 18009KT 08/01 A3003 RMK A01 T00760010  RH  063%=      5-min Rain = 0
KPD4 170543Z 18009KT 07/01 A3003 RMK A01 T00740010  RH  064%=      5-min Rain = 0
KPD4 170544Z 18009KT 07/01 A3003 RMK A01 T00720010  RH  064%=      5-min Rain = 0
KPD4 170545Z 18009KT 07/01 A3003 RMK A01 T00710010  RH  065%=      5-min Rain = 0
KPD4 170546Z 18009KT 07/01 A3003 RMK A01 T00700010  RH  065%=      5-min Rain = 0
KPD4 170547Z 18009KT 07/01 A3003 RMK A01 T00700010  RH  066%=      5-min Rain = 0
KPD4 170548Z 18009KT 07/01 A3003 RMK A01 T00700011  RH  066%=      5-min Rain = 0
KPD4 170549Z 18009KT 07/01 A3003 RMK A01 T00700011  RH  066%=      5-min Rain = 0
KPD4 170550Z 18009KT 07/01 A3003 RMK A01 T00700011  RH  066%=      5-min Rain = 0
KPD4 170551Z 18009KT 07/01 A3003 RMK A01 T00700011  RH  066%=      5-min Rain = 0
KPD4 170552Z 18009KT 07/01 A3003 RMK A01 T00700012  RH  066%=      5-min Rain = 0
KPD4 170553Z 18009KT 07/01 A3003 RMK A01 T00710012  RH  066%=      5-min Rain = 0
KPD4 170554Z 18009KT 07/01 A3003 RMK A01 T00720012  RH  066%=      5-min Rain = 0
KPD4 170555Z 18010KT 07/01 A3003 RMK A01 T00720012  RH  065%=      5-min Rain = 0
KPD4 170556Z 18010KT 07/01 A3003 RMK A01 T00730012  RH  065%=      5-min Rain = 0
KPD4 170557Z 18010KT 07/01 A3003 RMK A01 T00730011  RH  065%=      5-min Rain = 0
KPD4 170558Z 18010KT 07/01 A3002 RMK A01 T00730011  RH  065%=      5-min Rain = 0
KPD4 170559Z 18010KT 07/01 A3002 RMK A01 T00720011  RH  065%=      5-min Rain = 0
KPD4 170600Z 19009KT 07/01 A3002 RMK A01 T00720011  RH  065%=      5-min Rain = 0
KPD4 170601Z 18009KT 07/01 A3002 RMK A01 T00710011  RH  065%=      5-min Rain = 0
KPD4 170602Z 18009KT 07/01 A3002 RMK A01 T00720011  RH  065%=      5-min Rain = 0
KPD4 170603Z 18009KT 07/01 A3002 RMK A01 T00710010  RH  065%=      5-min Rain = 0
KPD4 170604Z 18010KT 07/01 A3002 RMK A01 T00700010  RH  066%=      5-min Rain = 0
KPD4 170605Z 18010KT 07/01 A3002 RMK A01 T00710011  RH  066%=      5-min Rain = 0
KPD4 170606Z 18010KT 07/01 A3002 RMK A01 T00700011  RH  066%=      5-min Rain = 0
KPD4 170607Z 19010KT 07/01 A3002 RMK A01 T00700010  RH  066%=      5-min Rain = 0
KPD4 170608Z 19010KT 07/01 A3002 RMK A01 T00700010  RH  066%=      5-min Rain = 0
KPD4 170609Z 19010KT 07/01 A3002 RMK A01 T00700011  RH  066%=      5-min Rain = 0
KPD4 170610Z 19010KT 07/01 A3002 RMK A01 T00700010  RH  066%=      5-min Rain = 0
KPD4 170611Z 18010KT 07/01 A3002 RMK A01 T00700010  RH  066%=      5-min Rain = 0
KPD4 170612Z 19010KT 07/01 A3002 RMK A01 T00690010  RH  066%=      5-min Rain = 0
KPD4 170613Z 19010KT 07/01 A3002 RMK A01 T00690010  RH  066%=      5-min Rain = 0
KPD4 170614Z 19010KT 07/01 A3002 RMK A01 T00680010  RH  066%=      5-min Rain = 0
KPD4 170615Z 19010KT 07/01 A3002 RMK A01 T00680010  RH  066%=      5-min Rain = 0
KPD4 170616Z 19010KT 07/01 A3001 RMK A01 T00680010  RH  066%=      5-min Rain = 0
KPD4 170617Z 19010KT 07/01 A3001 RMK A01 T00680010  RH  067%=      5-min Rain = 0
KPD4 170618Z 19010KT 07/01 A3001 RMK A01 T00670010  RH  067%=      5-min Rain = 0
KPD4 170619Z 19010KT 07/01 A3001 RMK A01 T00670010  RH  067%=      5-min Rain = 0
KPD4 170620Z 19010KT 07/01 A3001 RMK A01 T00670010  RH  067%=      5-min Rain = 0
KPD4 170621Z 19010KT 07/01 A3001 RMK A01 T00670010  RH  067%=      5-min Rain = 0
KPD4 170622Z 19010KT 07/01 A3001 RMK A01 T00680010  RH  067%=      5-min Rain = 0
KPD4 170623Z 19011KT 07/01 A3001 RMK A01 T00680010  RH  067%=      5-min Rain = 0
KPD4 170624Z 19011KT 07/01 A3001 RMK A01 T00690011  RH  066%=      5-min Rain = 0
KPD4 170625Z 19010KT 07/01 A3001 RMK A01 T00690011  RH  066%=      5-min Rain = 0
KPD4 170626Z 19011KT 07/01 A3001 RMK A01 T00690010  RH  066%=      5-min Rain = 0
KPD4 170627Z 19010KT 07/01 A3001 RMK A01 T00700010  RH  066%=      5-min Rain = 0
KPD4 170628Z 19010KT 07/01 A3001 RMK A01 T00700010  RH  066%=      5-min Rain = 0
KPD4 170629Z 20009KT 07/01 A3001 RMK A01 T00690009  RH  066%=      5-min Rain = 0
KPD4 170630Z 20009KT 07/01 A3001 RMK A01 T00670009  RH  066%=      5-min Rain = 0
KPD4 170631Z 19009KT 07/01 A3001 RMK A01 T00650008  RH  067%=      5-min Rain = 0
KPD4 170632Z 19009KT 06/01 A3001 RMK A01 T00640008  RH  067%=      5-min Rain = 0
KPD4 170633Z 19009KT 06/01 A3001 RMK A01 T00640009  RH  068%=      5-min Rain = 0
KPD4 170634Z 19009KT 06/01 A3001 RMK A01 T00640009  RH  068%=      5-min Rain = 0
KPD4 170635Z 19009KT 06/01 A3001 RMK A01 T00640009  RH  068%=      5-min Rain = 0
KPD4 170636Z 19009KT 06/01 A3001 RMK A01 T00640009  RH  068%=      5-min Rain = 0
KPD4 170637Z 19009KT 06/01 A3001 RMK A01 T00640009  RH  068%=      5-min Rain = 0
KPD4 170638Z 19009KT 06/01 A3001 RMK A01 T00640009  RH  068%=      5-min Rain = 0
KPD4 170639Z 19009KT 07/01 A3001 RMK A01 T00650009  RH  068%=      5-min Rain = 0
KPD4 170640Z 19009KT 07/01 A3001 RMK A01 T00650010  RH  068%=      5-min Rain = 0
KPD4 170641Z 19008KT 07/01 A3001 RMK A01 T00660010  RH  067%=      5-min Rain = 0
KPD4 170642Z 19009KT 07/01 A3001 RMK A01 T00660009  RH  067%=      5-min Rain = 0
KPD4 170643Z 19009KT 07/01 A3001 RMK A01 T00660010  RH  067%=      5-min Rain = 0
KPD4 170644Z 19008KT 07/01 A30 RMK A01 T00650009  RH  067%=      5-min Rain = 0
KPD4 170645Z 20008KT 07/01 A30 RMK A01 T00650009  RH  067%=      5-min Rain = 0
KPD4 170646Z 20009KT 06/01 A30 RMK A01 T00640009  RH  068%=      5-min Rain = 0
KPD4 170647Z 20009KT 06/01 A30 RMK A01 T00630009  RH  068%=      5-min Rain = 0
KPD4 170648Z 20009KT 06/01 A30 RMK A01 T00640009  RH  068%=      5-min Rain = 0
KPD4 170649Z 20009KT 06/01 A30 RMK A01 T00630009  RH  068%=      5-min Rain = 0
KPD4 170650Z 20009KT 06/01 A30 RMK A01 T00640010  RH  068%=      5-min Rain = 0
KPD4 170651Z 20010KT 07/01 A30 RMK A01 T00650010  RH  068%=      5-min Rain = 0
KPD4 170652Z 20010KT 07/01 A30 RMK A01 T00650010  RH  068%=      5-min Rain = 0
KPD4 170653Z 20010KT 07/01 A30 RMK A01 T00650010  RH  068%=      5-min Rain = 0
KPD4 170654Z 20010KT 07/01 A30 RMK A01 T00660010  RH  068%=      5-min Rain = 0
KPD4 170655Z 20010KT 07/01 A30 RMK A01 T00670011  RH  067%=      5-min Rain = 0
KPD4 170656Z 20010KT 07/01 A30 RMK A01 T00670011  RH  067%=      5-min Rain = 0
KPD4 170657Z 20010KT 07/01 A30 RMK A01 T00670011  RH  067%=      5-min Rain = 0
KPD4 170658Z 20010KT 07/01 A30 RMK A01 T00680011  RH  067%=      5-min Rain = 0
KPD4 170659Z 20010KT 07/01 A30 RMK A01 T00680010  RH  067%=      5-min Rain = 0
KPD4 170700Z 20010KT 07/01 A30 RMK A01 T00680010  RH  067%=      5-min Rain = 0
KPD4 170701Z 20010KT 07/01 A30 RMK A01 T00690011  RH  066%=      5-min Rain = 0
KPD4 170702Z 20010KT 07/01 A30 RMK A01 T00700011  RH  066%=      5-min Rain = 0
KPD4 170703Z 20010KT 07/01 A30 RMK A01 T00710011  RH  066%=      5-min Rain = 0
KPD4 170704Z 20009KT 07/01 A30 RMK A01 T00710011  RH  066%=      5-min Rain = 0
KPD4 170705Z 20010KT 07/01 A30 RMK A01 T00720011  RH  065%=      5-min Rain = 0
KPD4 170706Z 20010KT 07/01 A30 RMK A01 T00730011  RH  065%=      5-min Rain = 0
KPD4 170707Z 21010KT 07/01 A30 RMK A01 T00730011  RH  064%=      5-min Rain = 0
KPD4 170708Z 20009KT 07/01 A30 RMK A01 T00740011  RH  064%=      5-min Rain = 0
KPD4 170709Z 21009KT 07/01 A30 RMK A01 T00740011  RH  064%=      5-min Rain = 0
KPD4 170710Z 21009KT 07/01 A30 RMK A01 T00730010  RH  064%=      5-min Rain = 0
KPD4 170711Z 20009KT 07/01 A30 RMK A01 T00740010  RH  064%=      5-min Rain = 0
KPD4 170712Z 21008KT 07/01 A30 RMK A01 T00740010  RH  064%=      5-min Rain = 0
KPD4 170713Z 21009KT 07/01 A30 RMK A01 T00740010  RH  064%=      5-min Rain = 0
KPD4 170714Z 21008KT 08/01 A30 RMK A01 T00750010  RH  063%=      5-min Rain = 0
KPD4 170715Z 21008KT 08/01 A30 RMK A01 T00760010  RH  063%=      5-min Rain = 0
KPD4 170716Z 21009KT 08/01 A30 RMK A01 T00760009  RH  063%=      5-min Rain = 0
KPD4 170717Z 21008KT 08/01 A30 RMK A01 T00760009  RH  063%=      5-min Rain = 0
KPD4 170718Z 20009KT 08/01 A30 RMK A01 T00750009  RH  063%=      5-min Rain = 0
KPD4 170719Z 21008KT 08/01 A30 RMK A01 T00760009  RH  063%=      5-min Rain = 0
KPD4 170720Z 20009KT 08/01 A30 RMK A01 T00760009  RH  063%=      5-min Rain = 0
KPD4 170721Z 21010KT 08/01 A30 RMK A01 T00750009  RH  063%=      5-min Rain = 0
KPD4 170722Z 20010KT 08/01 A30 RMK A01 T00760009  RH  063%=      5-min Rain = 0
KPD4 170723Z 20010KT 08/01 A30 RMK A01 T00770009  RH  062%=      5-min Rain = 0
KPD4 170724Z 20010KT 08/01 A30 RMK A01 T00770009  RH  062%=      5-min Rain = 0
KPD4 170725Z 20010KT 08/01 A30 RMK A01 T00770009  RH  062%=      5-min Rain = 0
KPD4 170726Z 20011KT 08/01 A30 RMK A01 T00760009  RH  062%=      5-min Rain = 0
KPD4 170727Z 20010KT 08/01 A30 RMK A01 T00760009  RH  062%=      5-min Rain = 0
KPD4 170728Z 20010KT 08/01 A30 RMK A01 T00760008  RH  062%=      5-min Rain = 0
KPD4 170729Z 20010KT 08/01 A30 RMK A01 T00760009  RH  062%=      5-min Rain = 0
KPD4 170730Z 20010KT 08/01 A30 RMK A01 T00760009  RH  062%=      5-min Rain = 0
KPD4 170731Z 20010KT 08/01 A30 RMK A01 T00760009  RH  062%=      5-min Rain = 0
KPD4 170732Z 20010KT 08/01 A30 RMK A01 T00760009  RH  063%=      5-min Rain = 0
KPD4 170733Z 20010KT 08/01 A30 RMK A01 T00750009  RH  063%=      5-min Rain = 0
KPD4 170734Z 20011KT 08/01 A30 RMK A01 T00750009  RH  063%=      5-min Rain = 0
KPD4 170735Z 20010KT 08/01 A30 RMK A01 T00760009  RH  062%=      5-min Rain = 0
KPD4 170736Z 20010KT 08/01 A30 RMK A01 T00760009  RH  062%=      5-min Rain = 0
KPD4 170737Z 20010KT 08/01 A30 RMK A01 T00760009  RH  062%=      5-min Rain = 0
KPD4 170738Z 20010KT 08/01 A30 RMK A01 T00770009  RH  062%=      5-min Rain = 0
KPD4 170739Z 20010KT 08/01 A30 RMK A01 T00780009  RH  062%=      5-min Rain = 0
KPD4 170740Z 20010KT 08/01 A30 RMK A01 T00790009  RH  061%=      5-min Rain = 0
KPD4 170741Z 20010KT 08/01 A30 RMK A01 T00790009  RH  061%=      5-min Rain = 0
KPD4 170742Z 20010KT 08/01 A30 RMK A01 T00780009  RH  061%=      5-min Rain = 0
KPD4 170743Z 20010KT 08/01 A30 RMK A01 T00780009  RH  061%=      5-min Rain = 0
KPD4 170744Z 20010KT 08/01 A30 RMK A01 T00780009  RH  062%=      5-min Rain = 0
KPD4 170745Z 20010KT 08/01 A30 RMK A01 T00770008  RH  062%=      5-min Rain = 0
KPD4 170746Z 19010KT 08/01 A30 RMK A01 T00760009  RH  062%=      5-min Rain = 0
KPD4 170747Z 19010KT 08/01 A30 RMK A01 T00760009  RH  062%=      5-min Rain = 0
KPD4 170748Z 19009KT 08/01 A30 RMK A01 T00770009  RH  062%=      5-min Rain = 0
KPD4 170749Z 20010KT 08/01 A30 RMK A01 T00770009  RH  062%=      5-min Rain = 0
KPD4 170750Z 19010KT 08/01 A30 RMK A01 T00760009  RH  062%=      5-min Rain = 0
KPD4 170751Z 20010KT 08/01 A30 RMK A01 T00760009  RH  062%=      5-min Rain = 0
KPD4 170752Z 20010KT 08/01 A30 RMK A01 T00760009  RH  062%=      5-min Rain = 0
KPD4 170753Z 20009KT 08/01 A30 RMK A01 T00750009  RH  063%=      5-min Rain = 0
KPD4 170754Z 20010KT 07/01 A30 RMK A01 T00740009  RH  063%=      5-min Rain = 0
KPD4 170755Z 19010KT 07/01 A30 RMK A01 T00730008  RH  063%=      5-min Rain = 0
KPD4 170756Z 19010KT 07/01 A30 RMK A01 T00730009  RH  064%=      5-min Rain = 0
KPD4 170757Z 19011KT 07/01 A30 RMK A01 T00740009  RH  063%=      5-min Rain = 0
KPD4 170758Z 19011KT 07/01 A30 RMK A01 T00740009  RH  063%=      5-min Rain = 0
KPD4 170759Z 20010KT 07/01 A30 RMK A01 T00740009  RH  063%=      5-min Rain = 0
KPD4 170800Z 20011KT 07/01 A30 RMK A01 T00730009  RH  064%=      5-min Rain = 0
KPD4 170801Z 20010KT 07/01 A30 RMK A01 T00730009  RH  064%=      5-min Rain = 0
KPD4 170802Z 20010KT 07/01 A30 RMK A01 T00730009  RH  064%=      5-min Rain = 0
KPD4 170803Z 20010KT 07/01 A30 RMK A01 T00730009  RH  064%=      5-min Rain = 0
KPD4 170804Z 20009KT 07/01 A30 RMK A01 T00720009  RH  064%=      5-min Rain = 0
KPD4 170805Z 20009KT 07/01 A30 RMK A01 T00710009  RH  065%=      5-min Rain = 0
KPD4 170806Z 20010KT 07/01 A30 RMK A01 T00710009  RH  065%=      5-min Rain = 0
KPD4 170807Z 20009KT 07/01 A30 RMK A01 T00710009  RH  065%=      5-min Rain = 0
KPD4 170808Z 21010KT 07/01 A30 RMK A01 T00710009  RH  065%=      5-min Rain = 0
KPD4 170809Z 21010KT 07/01 A30 RMK A01 T00720009  RH  065%=      5-min Rain = 0
KPD4 170810Z 21010KT 07/01 A30 RMK A01 T00720009  RH  064%=      5-min Rain = 0
KPD4 170811Z 21009KT 07/01 A30 RMK A01 T00740010  RH  064%=      5-min Rain = 0
KPD4 170812Z 21009KT 08/01 A30 RMK A01 T00750009  RH  063%=      5-min Rain = 0
KPD4 170813Z 21009KT 08/01 A30 RMK A01 T00750009  RH  063%=      5-min Rain = 0
KPD4 170814Z 21009KT 08/01 A30 RMK A01 T00750009  RH  063%=      5-min Rain = 0
KPD4 170815Z 21010KT 08/01 A30 RMK A01 T00760009  RH  063%=      5-min Rain = 0
KPD4 170816Z 21010KT 08/01 A30 RMK A01 T00760009  RH  062%=      5-min Rain = 0
KPD4 170817Z 21009KT 08/01 A30 RMK A01 T00780009  RH  062%=      5-min Rain = 0
KPD4 170818Z 21008KT 08/01 A30 RMK A01 T00780009  RH  062%=      5-min Rain = 0
KPD4 170819Z 20008KT 08/01 A30 RMK A01 T00780009  RH  061%=      5-min Rain = 0
KPD4 170820Z 20008KT 08/01 A30 RMK A01 T00780008  RH  062%=      5-min Rain = 0
KPD4 170821Z 20009KT 08/01 A30 RMK A01 T00780008  RH  062%=      5-min Rain = 0
KPD4 170822Z 21008KT 08/01 A30 RMK A01 T00780008  RH  062%=      5-min Rain = 0
KPD4 170823Z 20008KT 08/01 A30 RMK A01 T00770008  RH  062%=      5-min Rain = 0
KPD4 170824Z 21008KT 08/01 A30 RMK A01 T00770008  RH  062%=      5-min Rain = 0
KPD4 170825Z 20008KT 08/01 A30 RMK A01 T00760008  RH  062%=      5-min Rain = 0
KPD4 170826Z 21008KT 08/01 A30 RMK A01 T00760008  RH  062%=      5-min Rain = 0
KPD4 170827Z 20008KT 08/01 A30 RMK A01 T00760008  RH  062%=      5-min Rain = 0
KPD4 170828Z 21008KT 08/01 A30 RMK A01 T00750008  RH  062%=      5-min Rain = 0
KPD4 170829Z 21008KT 07/01 A30 RMK A01 T00740008  RH  063%=      5-min Rain = 0
KPD4 170830Z 21008KT 07/01 A2999 RMK A01 T00730008  RH  063%=      5-min Rain = 0
KPD4 170831Z 21008KT 07/01 A2999 RMK A01 T00720007  RH  063%=      5-min Rain = 0
KPD4 170832Z 21007KT 07/01 A2999 RMK A01 T00720008  RH  064%=      5-min Rain = 0
KPD4 170833Z 21008KT 07/01 A2999 RMK A01 T00710008  RH  064%=      5-min Rain = 0
KPD4 170834Z 21008KT 07/01 A2999 RMK A01 T00710008  RH  064%=      5-min Rain = 0
KPD4 170835Z 21008KT 07/01 A2999 RMK A01 T00700008  RH  064%=      5-min Rain = 0
KPD4 170836Z 21008KT 07/01 A2999 RMK A01 T00700008  RH  065%=      5-min Rain = 0
KPD4 170837Z 21008KT 07/01 A2999 RMK A01 T00700008  RH  065%=      5-min Rain = 0
KPD4 170838Z 21008KT 07/01 A2999 RMK A01 T00700008  RH  065%=      5-min Rain = 0
KPD4 170839Z 21008KT 07/01 A2999 RMK A01 T00700008  RH  065%=      5-min Rain = 0
KPD4 170840Z 22007KT 07/01 A2999 RMK A01 T00700008  RH  065%=      5-min Rain = 0
KPD4 170841Z 22007KT 07/01 A2999 RMK A01 T00690008  RH  065%=      5-min Rain = 0
KPD4 170842Z 22007KT 07/01 A2999 RMK A01 T00680007  RH  065%=      5-min Rain = 0
KPD4 170843Z 22007KT 07/01 A2999 RMK A01 T00670007  RH  066%=      5-min Rain = 0
KPD4 170844Z 22007KT 07/01 A2999 RMK A01 T00670008  RH  066%=      5-min Rain = 0
KPD4 170845Z 22007KT 07/01 A2999 RMK A01 T00670008  RH  066%=      5-min Rain = 0
KPD4 170846Z 22007KT 07/01 A2999 RMK A01 T00670008  RH  066%=      5-min Rain = 0
KPD4 170847Z 22007KT 07/01 A2999 RMK A01 T00660008  RH  066%=      5-min Rain = 0
KPD4 170848Z 22008KT 07/01 A2999 RMK A01 T00660007  RH  066%=      5-min Rain = 0
KPD4 170849Z 22007KT 07/01 A2999 RMK A01 T00650007  RH  067%=      5-min Rain = 0
KPD4 170850Z 21007KT 06/01 A2999 RMK A01 T00640007  RH  067%=      5-min Rain = 0
KPD4 170851Z 22007KT 06/01 A2999 RMK A01 T00640007  RH  067%=      5-min Rain = 0
KPD4 170852Z 21007KT 06/01 A2999 RMK A01 T00640007  RH  067%=      5-min Rain = 0
KPD4 170853Z 22007KT 06/01 A2999 RMK A01 T00630007  RH  067%=      5-min Rain = 0
KPD4 170854Z 22007KT 06/01 A2999 RMK A01 T00630007  RH  068%=      5-min Rain = 0
KPD4 170855Z 22008KT 06/01 A2999 RMK A01 T00620007  RH  068%=      5-min Rain = 0
KPD4 170856Z 22008KT 06/01 A2999 RMK A01 T00620008  RH  068%=      5-min Rain = 0
KPD4 170857Z 21008KT 06/01 A2998 RMK A01 T00620007  RH  068%=      5-min Rain = 0
KPD4 170858Z 21008KT 06/01 A2998 RMK A01 T00620008  RH  068%=      5-min Rain = 0
KPD4 170859Z 21008KT 06/01 A2998 RMK A01 T00620008  RH  068%=      5-min Rain = 0
KPD4 170900Z 21009KT 06/01 A2998 RMK A01 T00630008  RH  068%=      5-min Rain = 0
KPD4 170901Z 21008KT 06/01 A2998 RMK A01 T00640009  RH  068%=      5-min Rain = 0
KPD4 170902Z 21008KT 07/01 A2998 RMK A01 T00650009  RH  067%=      5-min Rain = 0
KPD4 170903Z 21009KT 07/01 A2998 RMK A01 T00650008  RH  067%=      5-min Rain = 0
KPD4 170904Z 21009KT 07/01 A2998 RMK A01 T00650008  RH  067%=      5-min Rain = 0
KPD4 170905Z 21008KT 07/01 A2998 RMK A01 T00650009  RH  067%=      5-min Rain = 0
KPD4 170906Z 21008KT 06/01 A2998 RMK A01 T00640008  RH  067%=      5-min Rain = 0
KPD4 170907Z 21008KT 06/01 A2998 RMK A01 T00630008  RH  068%=      5-min Rain = 0
KPD4 170908Z 21008KT 06/01 A2998 RMK A01 T00620008  RH  068%=      5-min Rain = 0
KPD4 170909Z 21008KT 06/01 A2998 RMK A01 T00610008  RH  069%=      5-min Rain = 0
KPD4 170910Z 21008KT 06/01 A2998 RMK A01 T00610008  RH  069%=      5-min Rain = 0
KPD4 170911Z 20008KT 06/01 A2998 RMK A01 T00600008  RH  069%=      5-min Rain = 0
KPD4 170912Z 20008KT 06/01 A2998 RMK A01 T00590007  RH  069%=      5-min Rain = 0
KPD4 170913Z 20007KT 06/01 A2998 RMK A01 T00580007  RH  070%=      5-min Rain = 0
KPD4 170914Z 20007KT 06/01 A2998 RMK A01 T00570007  RH  070%=      5-min Rain = 0
KPD4 170915Z 20008KT 06/01 A2998 RMK A01 T00560006  RH  070%=      5-min Rain = 0
KPD4 170916Z 20008KT 05/01 A2998 RMK A01 T00540006  RH  071%=      5-min Rain = 0
KPD4 170917Z 20007KT 05/01 A2998 RMK A01 T00530006  RH  071%=      5-min Rain = 0
KPD4 170918Z 20007KT 05/01 A2998 RMK A01 T00520006  RH  072%=      5-min Rain = 0
KPD4 170919Z 20007KT 05/01 A2998 RMK A01 T00520006  RH  072%=      5-min Rain = 0
KPD4 170920Z 20007KT 05/01 A2998 RMK A01 T00530007  RH  072%=      5-min Rain = 0
KPD4 170921Z 20007KT 05/01 A2998 RMK A01 T00520007  RH  072%=      5-min Rain = 0
KPD4 170922Z 20007KT 05/01 A2998 RMK A01 T00520006  RH  073%=      5-min Rain = 0
KPD4 170923Z 20007KT 05/01 A2998 RMK A01 T00510006  RH  073%=      5-min Rain = 0
KPD4 170924Z 20007KT 05/01 A2998 RMK A01 T00500006  RH  073%=      5-min Rain = 0
KPD4 170925Z 20007KT 05/01 A2998 RMK A01 T00500007  RH  074%=      5-min Rain = 0
KPD4 170926Z 20007KT 05/01 A2998 RMK A01 T00500007  RH  074%=      5-min Rain = 0
KPD4 170927Z 20007KT 05/01 A2998 RMK A01 T00500007  RH  074%=      5-min Rain = 0
KPD4 170928Z 20007KT 05/01 A2998 RMK A01 T00500007  RH  074%=      5-min Rain = 0
KPD4 170929Z 20006KT 05/01 A2998 RMK A01 T00490007  RH  074%=      5-min Rain = 0
KPD4 170930Z 20007KT 05/01 A2998 RMK A01 T00490007  RH  074%=      5-min Rain = 0
KPD4 170931Z 20006KT 05/01 A2998 RMK A01 T00490007  RH  074%=      5-min Rain = 0
KPD4 170932Z 20007KT 05/01 A2998 RMK A01 T00490007  RH  075%=      5-min Rain = 0
KPD4 170933Z 20007KT 05/01 A2998 RMK A01 T00480007  RH  075%=      5-min Rain = 0
KPD4 170934Z 19007KT 05/01 A2998 RMK A01 T00480008  RH  075%=      5-min Rain = 0
KPD4 170935Z 19007KT 05/01 A2998 RMK A01 T00480007  RH  075%=      5-min Rain = 0
KPD4 170936Z 19007KT 05/01 A2998 RMK A01 T00480007  RH  075%=      5-min Rain = 0
KPD4 170937Z 19007KT 05/01 A2998 RMK A01 T00480007  RH  075%=      5-min Rain = 0
KPD4 170938Z 20007KT 05/01 A2998 RMK A01 T00480007  RH  075%=      5-min Rain = 0
KPD4 170939Z 20007KT 05/01 A2998 RMK A01 T00480007  RH  075%=      5-min Rain = 0
KPD4 170940Z 20007KT 05/01 A2998 RMK A01 T00480007  RH  075%=      5-min Rain = 0
KPD4 170941Z 20007KT 05/01 A2998 RMK A01 T00480007  RH  075%=      5-min Rain = 0
KPD4 170942Z 20007KT 05/01 A2998 RMK A01 T00470007  RH  075%=      5-min Rain = 0
KPD4 170943Z 20007KT 05/01 A2998 RMK A01 T00470007  RH  075%=      5-min Rain = 0
KPD4 170944Z 20007KT 05/01 A2998 RMK A01 T00460007  RH  076%=      5-min Rain = 0
KPD4 170945Z 20007KT 05/01 A2998 RMK A01 T00450007  RH  076%=      5-min Rain = 0
KPD4 170946Z 20008KT 05/01 A2997 RMK A01 T00450007  RH  076%=      5-min Rain = 0
KPD4 170947Z 20008KT 05/01 A2997 RMK A01 T00450007  RH  077%=      5-min Rain = 0
KPD4 170948Z 20008KT 05/01 A2997 RMK A01 T00450008  RH  077%=      5-min Rain = 0
KPD4 170949Z 20008KT 05/01 A2997 RMK A01 T00450007  RH  077%=      5-min Rain = 0
KPD4 170950Z 21008KT 05/01 A2997 RMK A01 T00450007  RH  077%=      5-min Rain = 0
KPD4 170951Z 21008KT 05/01 A2997 RMK A01 T00450007  RH  076%=      5-min Rain = 0
KPD4 170952Z 21008KT 05/01 A2997 RMK A01 T00460008  RH  076%=      5-min Rain = 0
KPD4 170953Z 21008KT 05/01 A2997 RMK A01 T00470008  RH  076%=      5-min Rain = 0
KPD4 170954Z 21008KT 05/01 A2997 RMK A01 T00490009  RH  075%=      5-min Rain = 0
KPD4 170955Z 20008KT 05/01 A2997 RMK A01 T00490008  RH  075%=      5-min Rain = 0
KPD4 170956Z 20008KT 05/01 A2997 RMK A01 T00490008  RH  074%=      5-min Rain = 0
KPD4 170957Z 21008KT 05/01 A2997 RMK A01 T00490008  RH  075%=      5-min Rain = 0
KPD4 170958Z 20009KT 05/01 A2997 RMK A01 T00490008  RH  075%=      5-min Rain = 0
KPD4 170959Z 20008KT 05/01 A2997 RMK A01 T00500008  RH  074%=      5-min Rain = 0
KPD4 171000Z 20008KT 05/01 A2997 RMK A01 T00510009  RH  074%=      5-min Rain = 0
KPD4 171001Z 20008KT 05/01 A2997 RMK A01 T00510008  RH  074%=      5-min Rain = 0
KPD4 171002Z 20008KT 05/01 A2997 RMK A01 T00510008  RH  074%=      5-min Rain = 0
KPD4 171003Z 20008KT 05/01 A2997 RMK A01 T00510009  RH  074%=      5-min Rain = 0
KPD4 171004Z 20008KT 05/01 A2997 RMK A01 T00510009  RH  074%=      5-min Rain = 0
KPD4 171005Z 20008KT 05/01 A2997 RMK A01 T00510009  RH  074%=      5-min Rain = 0
KPD4 171006Z 20009KT 05/01 A2997 RMK A01 T00520009  RH  074%=      5-min Rain = 0
KPD4 171007Z 20009KT 05/01 A2997 RMK A01 T00520010  RH  074%=      5-min Rain = 0
KPD4 171008Z 20009KT 05/01 A2997 RMK A01 T00530010  RH  074%=      5-min Rain = 0
KPD4 171009Z 20009KT 05/01 A2997 RMK A01 T00530010  RH  074%=      5-min Rain = 0
KPD4 171010Z 20009KT 05/01 A2997 RMK A01 T00530010  RH  074%=      5-min Rain = 0
KPD4 171011Z 20009KT 05/01 A2997 RMK A01 T00530010  RH  074%=      5-min Rain = 0
KPD4 171012Z 20009KT 05/01 A2997 RMK A01 T00530010  RH  073%=      5-min Rain = 0
KPD4 171013Z 20008KT 05/01 A2997 RMK A01 T00530010  RH  073%=      5-min Rain = 0
KPD4 171014Z 20008KT 05/01 A2997 RMK A01 T00530009  RH  073%=      5-min Rain = 0
KPD4 171015Z 20008KT 05/01 A2997 RMK A01 T00530009  RH  073%=      5-min Rain = 0
KPD4 171016Z 20008KT 05/01 A2997 RMK A01 T00530009  RH  073%=      5-min Rain = 0
KPD4 171017Z 20008KT 05/01 A2997 RMK A01 T00530009  RH  073%=      5-min Rain = 0
KPD4 171018Z 20007KT 05/01 A2997 RMK A01 T00530009  RH  073%=      5-min Rain = 0
KPD4 171019Z 20007KT 05/01 A2997 RMK A01 T00520008  RH  073%=      5-min Rain = 0
KPD4 171020Z 20007KT 05/01 A2997 RMK A01 T00510008  RH  074%=      5-min Rain = 0
KPD4 171021Z 21007KT 05/01 A2997 RMK A01 T00500008  RH  074%=      5-min Rain = 0
KPD4 171022Z 21007KT 05/01 A2997 RMK A01 T00500008  RH  074%=      5-min Rain = 0
KPD4 171023Z 21008KT 05/01 A2997 RMK A01 T00490008  RH  075%=      5-min Rain = 0
KPD4 171024Z 21008KT 05/01 A2997 RMK A01 T00490008  RH  075%=      5-min Rain = 0
KPD4 171025Z 21008KT 05/01 A2997 RMK A01 T00490008  RH  075%=      5-min Rain = 0
KPD4 171026Z 21008KT 05/01 A2997 RMK A01 T00500009  RH  075%=      5-min Rain = 0
KPD4 171027Z 21008KT 05/01 A2997 RMK A01 T00530011  RH  074%=      5-min Rain = 0
KPD4 171028Z 21009KT 06/01 A2997 RMK A01 T00550011  RH  073%=      5-min Rain = 0
KPD4 171029Z 21009KT 06/01 A2997 RMK A01 T00560011  RH  073%=      5-min Rain = 0
KPD4 171030Z 21009KT 06/01 A2997 RMK A01 T00570011  RH  072%=      5-min Rain = 0
KPD4 171031Z 21009KT 06/01 A2997 RMK A01 T00570010  RH  072%=      5-min Rain = 0
KPD4 171032Z 20009KT 06/01 A2997 RMK A01 T00570010  RH  072%=      5-min Rain = 0
KPD4 171033Z 21009KT 06/01 A2997 RMK A01 T00570010  RH  072%=      5-min Rain = 0
KPD4 171034Z 20009KT 06/01 A2997 RMK A01 T00570010  RH  072%=      5-min Rain = 0
KPD4 171035Z 20008KT 06/01 A2997 RMK A01 T00570009  RH  072%=      5-min Rain = 0
KPD4 171036Z 20008KT 06/01 A2997 RMK A01 T00560009  RH  072%=      5-min Rain = 0
KPD4 171037Z 20008KT 06/01 A2997 RMK A01 T00550009  RH  072%=      5-min Rain = 0
KPD4 171038Z 20008KT 06/01 A2997 RMK A01 T00550009  RH  072%=      5-min Rain = 0
KPD4 171039Z 20007KT 05/01 A2997 RMK A01 T00540009  RH  072%=      5-min Rain = 0
KPD4 171040Z 21007KT 05/01 A2997 RMK A01 T00530008  RH  073%=      5-min Rain = 0
KPD4 171041Z 21008KT 05/01 A2997 RMK A01 T00520008  RH  073%=      5-min Rain = 0
KPD4 171042Z 21008KT 05/01 A2997 RMK A01 T00520008  RH  073%=      5-min Rain = 0
KPD4 171043Z 21008KT 05/01 A2997 RMK A01 T00520008  RH  073%=      5-min Rain = 0
KPD4 171044Z 21008KT 05/01 A2997 RMK A01 T00510008  RH  074%=      5-min Rain = 0
KPD4 171045Z 21008KT 05/01 A2997 RMK A01 T00510009  RH  074%=      5-min Rain = 0
KPD4 171046Z 21009KT 05/01 A2997 RMK A01 T00530010  RH  074%=      5-min Rain = 0
KPD4 171047Z 21008KT 06/01 A2997 RMK A01 T00550010  RH  073%=      5-min Rain = 0
KPD4 171048Z 21008KT 06/01 A2997 RMK A01 T00560010  RH  072%=      5-min Rain = 0
KPD4 171049Z 21008KT 06/01 A2997 RMK A01 T00560010  RH  072%=      5-min Rain = 0
KPD4 171050Z 21008KT 06/01 A2997 RMK A01 T00560009  RH  072%=      5-min Rain = 0
KPD4 171051Z 21008KT 06/01 A2997 RMK A01 T00560009  RH  072%=      5-min Rain = 0
KPD4 171052Z 21008KT 06/01 A2997 RMK A01 T00550008  RH  072%=      5-min Rain = 0
KPD4 171053Z 21007KT 05/01 A2997 RMK A01 T00540008  RH  072%=      5-min Rain = 0
KPD4 171054Z 21007KT 05/01 A2997 RMK A01 T00540008  RH  072%=      5-min Rain = 0
KPD4 171055Z 21007KT 05/01 A2997 RMK A01 T00530008  RH  072%=      5-min Rain = 0
KPD4 171056Z 21007KT 05/01 A2997 RMK A01 T00530008  RH  073%=      5-min Rain = 0
KPD4 171057Z 21008KT 05/01 A2997 RMK A01 T00530008  RH  073%=      5-min Rain = 0
KPD4 171058Z 22008KT 05/01 A2997 RMK A01 T00530009  RH  073%=      5-min Rain = 0
KPD4 171059Z 22009KT 05/01 A2997 RMK A01 T00540009  RH  073%=      5-min Rain = 0
KPD4 171100Z 21008KT 06/01 A2997 RMK A01 T00550009  RH  072%=      5-min Rain = 0
KPD4 171101Z 22008KT 06/01 A2997 RMK A01 T00550009  RH  072%=      5-min Rain = 0
KPD4 171102Z 22008KT 05/01 A2997 RMK A01 T00540009  RH  072%=      5-min Rain = 0
KPD4 171103Z 22008KT 05/01 A2997 RMK A01 T00540008  RH  072%=      5-min Rain = 0
KPD4 171104Z 21008KT 05/01 A2997 RMK A01 T00540008  RH  072%=      5-min Rain = 0
KPD4 171105Z 21008KT 05/01 A2997 RMK A01 T00540008  RH  072%=      5-min Rain = 0
KPD4 171106Z 21008KT 05/01 A2996 RMK A01 T00540008  RH  072%=      5-min Rain = 0
KPD4 171107Z 21008KT 05/01 A2996 RMK A01 T00540008  RH  072%=      5-min Rain = 0
KPD4 171108Z 21008KT 05/01 A2996 RMK A01 T00540008  RH  072%=      5-min Rain = 0
KPD4 171109Z 21008KT 05/01 A2996 RMK A01 T00540008  RH  072%=      5-min Rain = 0
KPD4 171110Z 21008KT 05/01 A2996 RMK A01 T00530008  RH  073%=      5-min Rain = 0
KPD4 171111Z 21008KT 05/01 A2996 RMK A01 T00520007  RH  073%=      5-min Rain = 0
KPD4 171112Z 21008KT 05/01 A2996 RMK A01 T00520007  RH  073%=      5-min Rain = 0
KPD4 171113Z 21008KT 05/01 A2996 RMK A01 T00510007  RH  073%=      5-min Rain = 0
KPD4 171114Z 21008KT 05/01 A2996 RMK A01 T00510007  RH  074%=      5-min Rain = 0
KPD4 171115Z 21008KT 05/01 A2996 RMK A01 T00510008  RH  074%=      5-min Rain = 0
KPD4 171116Z 21008KT 05/01 A2996 RMK A01 T00510008  RH  074%=      5-min Rain = 0
KPD4 171117Z 21007KT 05/01 A2996 RMK A01 T00510007  RH  073%=      5-min Rain = 0
KPD4 171118Z 21008KT 05/01 A2996 RMK A01 T00500007  RH  074%=      5-min Rain = 0
KPD4 171119Z 21007KT 05/01 A2996 RMK A01 T00500008  RH  074%=      5-min Rain = 0
KPD4 171120Z 21008KT 05/01 A2996 RMK A01 T00510008  RH  074%=      5-min Rain = 0
KPD4 171121Z 21008KT 05/01 A2995 RMK A01 T00510008  RH  074%=      5-min Rain = 0
KPD4 171122Z 21008KT 05/01 A2995 RMK A01 T00520008  RH  073%=      5-min Rain = 0
KPD4 171123Z 21008KT 05/01 A2995 RMK A01 T00530008  RH  073%=      5-min Rain = 0
KPD4 171124Z 21008KT 05/01 A2995 RMK A01 T00530008  RH  073%=      5-min Rain = 0
KPD4 171125Z 21008KT 05/01 A2995 RMK A01 T00520007  RH  073%=      5-min Rain = 0
KPD4 171126Z 21008KT 05/01 A2995 RMK A01 T00510007  RH  073%=      5-min Rain = 0
KPD4 171127Z 21008KT 05/01 A2995 RMK A01 T00500006  RH  073%=      5-min Rain = 0
KPD4 171128Z 20008KT 05/01 A2995 RMK A01 T00490006  RH  074%=      5-min Rain = 0
KPD4 171129Z 20008KT 05/01 A2995 RMK A01 T00470005  RH  074%=      5-min Rain = 0
KPD4 171130Z 20008KT 05/01 A2995 RMK A01 T00460005  RH  075%=      5-min Rain = 0
KPD4 171131Z 20008KT 04/01 A2995 RMK A01 T00440005  RH  075%=      5-min Rain = 0
KPD4 171132Z 20007KT 04/01 A2995 RMK A01 T00430005  RH  076%=      5-min Rain = 0
KPD4 171133Z 20007KT 04/01 A2995 RMK A01 T00420005  RH  076%=      5-min Rain = 0
KPD4 171134Z 20007KT 04/01 A2995 RMK A01 T00420005  RH  077%=      5-min Rain = 0
KPD4 171135Z 19007KT 04/01 A2995 RMK A01 T00420005  RH  077%=      5-min Rain = 0
KPD4 171136Z 19007KT 04/00 A2995 RMK A01 T00410004  RH  077%=      5-min Rain = 0
KPD4 171137Z 20007KT 04/00 A2995 RMK A01 T00400004  RH  077%=      5-min Rain = 0
KPD4 171138Z 20007KT 04/00 A2995 RMK A01 T00390003  RH  078%=      5-min Rain = 0
KPD4 171139Z 20007KT 04/00 A2995 RMK A01 T00380003  RH  078%=      5-min Rain = 0
KPD4 171140Z 20007KT 04/00 A2995 RMK A01 T00370003  RH  079%=      5-min Rain = 0
KPD4 171141Z 20007KT 04/00 A2995 RMK A01 T00360003  RH  079%=      5-min Rain = 0
KPD4 171142Z 20007KT 04/00 A2995 RMK A01 T00360003  RH  079%=      5-min Rain = 0
KPD4 171143Z 20007KT 04/00 A2995 RMK A01 T00360003  RH  079%=      5-min Rain = 0
KPD4 171144Z 19007KT 04/00 A2995 RMK A01 T00350002  RH  079%=      5-min Rain = 0
KPD4 171145Z 19007KT 03/00 A2995 RMK A01 T00330001  RH  080%=      5-min Rain = 0
KPD4 171146Z 19006KT 03/00 A2995 RMK A01 T00330002  RH  080%=      5-min Rain = 0
KPD4 171147Z 19006KT 03/00 A2995 RMK A01 T00330003  RH  080%=      5-min Rain = 0
KPD4 171148Z 20006KT 03/00 A2995 RMK A01 T00330002  RH  080%=      5-min Rain = 0
KPD4 171149Z 20006KT 03/00 A2995 RMK A01 T00330003  RH  080%=      5-min Rain = 0
KPD4 171150Z 20006KT 03/00 A2995 RMK A01 T00340003  RH  080%=      5-min Rain = 0
KPD4 171151Z 20006KT 03/00 A2995 RMK A01 T00340003  RH  080%=      5-min Rain = 0
KPD4 171152Z 20006KT 03/00 A2995 RMK A01 T00340003  RH  080%=      5-min Rain = 0
KPD4 171153Z 21007KT 03/00 A2995 RMK A01 T00340003  RH  080%=      5-min Rain = 0
KPD4 171154Z 20007KT 04/00 A2995 RMK A01 T00350003  RH  080%=      5-min Rain = 0
KPD4 171155Z 21007KT 03/00 A2995 RMK A01 T00340003  RH  080%=      5-min Rain = 0
KPD4 171156Z 20007KT 04/00 A2995 RMK A01 T00350003  RH  080%=      5-min Rain = 0
KPD4 171157Z 20007KT 03/00 A2995 RMK A01 T00340003  RH  080%=      5-min Rain = 0
KPD4 171158Z 20007KT 04/00 A2995 RMK A01 T00350003  RH  080%=      5-min Rain = 0
KPD4 171159Z 20007KT 03/00 A2995 RMK A01 T00340003  RH  080%=      5-min Rain = 0
KPD4 171200Z 20007KT 03/00 A2995 RMK A01 T00340003  RH  080%=      5-min Rain = 0
KPD4 171201Z 20007KT 03/00 A2995 RMK A01 T00340003  RH  080%=      5-min Rain = 0
KPD4 171202Z 20007KT 03/00 A2995 RMK A01 T00340002  RH  080%=      5-min Rain = 0
KPD4 171203Z 20007KT 03/00 A2995 RMK A01 T00330002  RH  080%=      5-min Rain = 0
KPD4 171204Z 20007KT 03/00 A2995 RMK A01 T00330002  RH  080%=      5-min Rain = 0
KPD4 171205Z 21007KT 03/00 A2995 RMK A01 T00330002  RH  081%=      5-min Rain = 0
KPD4 171206Z 20007KT 03/00 A2995 RMK A01 T00330003  RH  081%=      5-min Rain = 0
KPD4 171207Z 21007KT 03/00 A2995 RMK A01 T00330002  RH  081%=      5-min Rain = 0
KPD4 171208Z 21007KT 03/00 A2995 RMK A01 T00330003  RH  081%=      5-min Rain = 0
KPD4 171209Z 21007KT 03/00 A2995 RMK A01 T00330003  RH  081%=      5-min Rain = 0
KPD4 171210Z 21007KT 03/00 A2995 RMK A01 T00320002  RH  081%=      5-min Rain = 0
KPD4 171211Z 21007KT 03/00 A2995 RMK A01 T00320002  RH  081%=      5-min Rain = 0
KPD4 171212Z 21007KT 03/00 A2995 RMK A01 T00320003  RH  081%=      5-min Rain = 0
KPD4 171213Z 20007KT 03/00 A2995 RMK A01 T00320002  RH  081%=      5-min Rain = 0
KPD4 171214Z 20007KT 03/00 A2995 RMK A01 T00320002  RH  081%=      5-min Rain = 0
KPD4 171215Z 20007KT 03/00 A2995 RMK A01 T00310002  RH  081%=      5-min Rain = 0
KPD4 171216Z 20007KT 03/00 A2995 RMK A01 T00310003  RH  081%=      5-min Rain = 0
KPD4 171217Z 20007KT 03/00 A2995 RMK A01 T00320003  RH  081%=      5-min Rain = 0
KPD4 171218Z 19007KT 03/00 A2995 RMK A01 T00320003  RH  081%=      5-min Rain = 0
KPD4 171219Z 20007KT 03/00 A2995 RMK A01 T00320003  RH  081%=      5-min Rain = 0
KPD4 171220Z 19008KT 03/00 A2995 RMK A01 T00320003  RH  081%=      5-min Rain = 0
KPD4 171221Z 20007KT 03/00 A2995 RMK A01 T00320003  RH  081%=      5-min Rain = 0
KPD4 171222Z 20008KT 03/00 A2995 RMK A01 T00310002  RH  081%=      5-min Rain = 0
KPD4 171223Z 20007KT 03/00 A2995 RMK A01 T00300001  RH  081%=      5-min Rain = 0
KPD4 171224Z 20008KT 03/00 A2995 RMK A01 T00290001  RH  082%=      5-min Rain = 0
KPD4 171225Z 20008KT 03/00 A2995 RMK A01 T002800-0  RH  082%=      5-min Rain = 0
KPD4 171226Z 20008KT 03/M00 A2995 RMK A01 T00271001  RH  082%=      5-min Rain = 0
KPD4 171227Z 20008KT 03/M00 A2995 RMK A01 T00251001  RH  083%=      5-min Rain = 0
KPD4 171228Z 20008KT 03/00 A2995 RMK A01 T002500-0  RH  083%=      5-min Rain = 0
KPD4 171229Z 20008KT 02/00 A2995 RMK A01 T002400-0  RH  084%=      5-min Rain = 0
KPD4 171230Z 20008KT 03/00 A2995 RMK A01 T00250000  RH  084%=      5-min Rain = 0
KPD4 171231Z 20008KT 03/00 A2995 RMK A01 T00250001  RH  084%=      5-min Rain = 0
KPD4 171232Z 20008KT 03/00 A2995 RMK A01 T00250001  RH  084%=      5-min Rain = 0
KPD4 171233Z 20008KT 03/00 A2995 RMK A01 T00250000  RH  084%=      5-min Rain = 0
KPD4 171234Z 21008KT 03/00 A2995 RMK A01 T00250000  RH  084%=      5-min Rain = 0
KPD4 171235Z 20008KT 03/00 A2995 RMK A01 T00260001  RH  084%=      5-min Rain = 0
KPD4 171236Z 20008KT 03/00 A2995 RMK A01 T00260001  RH  084%=      5-min Rain = 0
KPD4 171237Z 20008KT 03/00 A2995 RMK A01 T00270002  RH  084%=      5-min Rain = 0
KPD4 171238Z 20008KT 03/00 A2995 RMK A01 T00280002  RH  083%=      5-min Rain = 0
KPD4 171239Z 20008KT 03/00 A2995 RMK A01 T00280002  RH  083%=      5-min Rain = 0
KPD4 171240Z 20008KT 03/00 A2995 RMK A01 T00280003  RH  083%=      5-min Rain = 0
KPD4 171241Z 20008KT 03/00 A2995 RMK A01 T00290002  RH  083%=      5-min Rain = 0
KPD4 171242Z 21008KT 03/00 A2995 RMK A01 T00290003  RH  083%=      5-min Rain = 0
KPD4 171243Z 21008KT 03/00 A2995 RMK A01 T00300003  RH  083%=      5-min Rain = 0
KPD4 171244Z 21008KT 03/00 A2995 RMK A01 T00300004  RH  083%=      5-min Rain = 0
KPD4 171245Z 21009KT 03/01 A2995 RMK A01 T00320005  RH  083%=      5-min Rain = 0
KPD4 171246Z 21009KT 03/01 A2995 RMK A01 T00330006  RH  082%=      5-min Rain = 0
KPD4 171247Z 21008KT 03/01 A2995 RMK A01 T00340006  RH  082%=      5-min Rain = 0
KPD4 171248Z 20008KT 04/01 A2995 RMK A01 T00350006  RH  081%=      5-min Rain = 0
KPD4 171249Z 20008KT 04/01 A2995 RMK A01 T00350005  RH  081%=      5-min Rain = 0
KPD4 171250Z 20008KT 04/01 A2995 RMK A01 T00350005  RH  081%=      5-min Rain = 0
KPD4 171251Z 20008KT 03/00 A2995 RMK A01 T00340004  RH  081%=      5-min Rain = 0
KPD4 171252Z 20008KT 03/01 A2995 RMK A01 T00330005  RH  082%=      5-min Rain = 0
KPD4 171253Z 20008KT 03/01 A2995 RMK A01 T00330005  RH  082%=      5-min Rain = 0
KPD4 171254Z 19009KT 03/01 A2995 RMK A01 T00330005  RH  082%=      5-min Rain = 0
KPD4 171255Z 19009KT 03/01 A2995 RMK A01 T00340006  RH  082%=      5-min Rain = 0
KPD4 171256Z 19009KT 04/01 A2995 RMK A01 T00360007  RH  082%=      5-min Rain = 0
KPD4 171257Z 19009KT 04/01 A2995 RMK A01 T00360007  RH  081%=      5-min Rain = 0
KPD4 171258Z 19009KT 04/01 A2995 RMK A01 T00370007  RH  081%=      5-min Rain = 0
KPD4 171259Z 19009KT 04/01 A2995 RMK A01 T00370006  RH  081%=      5-min Rain = 0
KPD4 171300Z 19010KT 04/01 A2995 RMK A01 T00370006  RH  080%=      5-min Rain = 0
KPD4 171301Z 19009KT 04/01 A2995 RMK A01 T00370007  RH  080%=      5-min Rain = 0
KPD4 171302Z 19009KT 04/01 A2995 RMK A01 T00380007  RH  080%=      5-min Rain = 0
KPD4 171303Z 19009KT 04/01 A2995 RMK A01 T00380006  RH  080%=      5-min Rain = 0
KPD4 171304Z 19008KT 04/01 A2995 RMK A01 T00380006  RH  080%=      5-min Rain = 0
KPD4 171305Z 19008KT 04/01 A2995 RMK A01 T00370006  RH  080%=      5-min Rain = 0
KPD4 171306Z 19008KT 04/01 A2995 RMK A01 T00370006  RH  080%=      5-min Rain = 0
KPD4 171307Z 20007KT 04/01 A2995 RMK A01 T00360006  RH  080%=      5-min Rain = 0
KPD4 171308Z 20007KT 04/01 A2995 RMK A01 T00360005  RH  081%=      5-min Rain = 0
KPD4 171309Z 20007KT 04/01 A2995 RMK A01 T00350005  RH  081%=      5-min Rain = 0
KPD4 171310Z 20007KT 03/01 A2995 RMK A01 T00340005  RH  081%=      5-min Rain = 0
KPD4 171311Z 20007KT 03/01 A2995 RMK A01 T00340006  RH  082%=      5-min Rain = 0
KPD4 171312Z 20007KT 04/01 A2995 RMK A01 T00350006  RH  082%=      5-min Rain = 0
KPD4 171313Z 20007KT 04/01 A2995 RMK A01 T00350007  RH  081%=      5-min Rain = 0
KPD4 171314Z 20007KT 04/01 A2995 RMK A01 T00360007  RH  081%=      5-min Rain = 0
KPD4 171315Z 20007KT 04/01 A2995 RMK A01 T00360007  RH  081%=      5-min Rain = 0
KPD4 171316Z 20007KT 04/01 A2995 RMK A01 T00360007  RH  081%=      5-min Rain = 0
KPD4 171317Z 20007KT 04/01 A2995 RMK A01 T00370008  RH  081%=      5-min Rain = 0
KPD4 171318Z 20007KT 04/01 A2995 RMK A01 T00370008  RH  081%=      5-min Rain = 0
KPD4 171319Z 20007KT 04/01 A2995 RMK A01 T00370008  RH  081%=      5-min Rain = 0
KPD4 171320Z 20007KT 04/01 A2995 RMK A01 T00380008  RH  081%=      5-min Rain = 0
KPD4 171321Z 20007KT 04/01 A2995 RMK A01 T00380009  RH  081%=      5-min Rain = 0
KPD4 171322Z 20006KT 04/01 A2995 RMK A01 T00390009  RH  081%=      5-min Rain = 0
KPD4 171323Z 21007KT 04/01 A2995 RMK A01 T00390009  RH  081%=      5-min Rain = 0
KPD4 171324Z 21007KT 04/01 A2995 RMK A01 T00400010  RH  081%=      5-min Rain = 0
KPD4 171325Z 21007KT 04/01 A2995 RMK A01 T00420011  RH  080%=      5-min Rain = 0
KPD4 171326Z 21007KT 04/01 A2995 RMK A01 T00440012  RH  080%=      5-min Rain = 0
KPD4 171327Z 21008KT 05/01 A2995 RMK A01 T00450012  RH  079%=      5-min Rain = 0
KPD4 171328Z 21007KT 05/01 A2995 RMK A01 T00470012  RH  078%=      5-min Rain = 0
KPD4 171329Z 21007KT 05/01 A2995 RMK A01 T00480012  RH  078%=      5-min Rain = 0
KPD4 171330Z 21008KT 05/01 A2995 RMK A01 T00490013  RH  077%=      5-min Rain = 0
KPD4 171331Z 21008KT 05/01 A2995 RMK A01 T00500013  RH  077%=      5-min Rain = 0
KPD4 171332Z 21008KT 05/01 A2995 RMK A01 T00520014  RH  076%=      5-min Rain = 0
KPD4 171333Z 21008KT 05/01 A2995 RMK A01 T00540014  RH  075%=      5-min Rain = 0
KPD4 171334Z 21008KT 06/01 A2995 RMK A01 T00560014  RH  074%=      5-min Rain = 0
KPD4 171335Z 21008KT 06/01 A2995 RMK A01 T00580014  RH  074%=      5-min Rain = 0
KPD4 171336Z 21008KT 06/02 A2995 RMK A01 T00590015  RH  073%=      5-min Rain = 0
KPD4 171337Z 21008KT 06/02 A2995 RMK A01 T00600015  RH  073%=      5-min Rain = 0
KPD4 171338Z 20008KT 06/02 A2995 RMK A01 T00610015  RH  073%=      5-min Rain = 0
KPD4 171339Z 20009KT 06/02 A2995 RMK A01 T00610015  RH  072%=      5-min Rain = 0
KPD4 171340Z 20009KT 06/02 A2995 RMK A01 T00620015  RH  072%=      5-min Rain = 0
KPD4 171341Z 21009KT 06/02 A2995 RMK A01 T00630016  RH  072%=      5-min Rain = 0
KPD4 171342Z 21009KT 06/02 A2995 RMK A01 T00640016  RH  071%=      5-min Rain = 0
KPD4 171343Z 21009KT 07/02 A2995 RMK A01 T00650016  RH  071%=      5-min Rain = 0
KPD4 171344Z 21009KT 07/02 A2995 RMK A01 T00660016  RH  070%=      5-min Rain = 0
KPD4 171345Z 21009KT 07/02 A2995 RMK A01 T00670016  RH  070%=      5-min Rain = 0
KPD4 171346Z 21008KT 07/02 A2995 RMK A01 T00680016  RH  070%=      5-min Rain = 0
KPD4 171347Z 21008KT 07/02 A2995 RMK A01 T00690017  RH  069%=      5-min Rain = 0
KPD4 171348Z 20008KT 07/02 A2995 RMK A01 T00710017  RH  069%=      5-min Rain = 0
KPD4 171349Z 20008KT 07/02 A2995 RMK A01 T00720017  RH  068%=      5-min Rain = 0
KPD4 171350Z 20007KT 07/02 A2995 RMK A01 T00710017  RH  068%=      5-min Rain = 0
KPD4 171351Z 20007KT 07/02 A2995 RMK A01 T00720017  RH  068%=      5-min Rain = 0
KPD4 171352Z 20007KT 07/02 A2995 RMK A01 T00720018  RH  068%=      5-min Rain = 0
KPD4 171353Z 20008KT 07/02 A2995 RMK A01 T00720017  RH  068%=      5-min Rain = 0
KPD4 171354Z 20008KT 07/02 A2995 RMK A01 T00730017  RH  068%=      5-min Rain = 0
KPD4 171355Z 20008KT 07/02 A2995 RMK A01 T00740018  RH  068%=      5-min Rain = 0
KPD4 171356Z 20007KT 07/02 A2995 RMK A01 T00740017  RH  067%=      5-min Rain = 0
KPD4 171357Z 19007KT 08/02 A2995 RMK A01 T00750018  RH  067%=      5-min Rain = 0
KPD4 171358Z 19008KT 08/02 A2995 RMK A01 T00760018  RH  067%=      5-min Rain = 0
KPD4 171359Z 19009KT 08/02 A2995 RMK A01 T00770018  RH  066%=      5-min Rain = 0
KPD4 171400Z 19009KT 08/02 A2995 RMK A01 T00770018  RH  066%=      5-min Rain = 0
KPD4 171401Z 19009KT 08/02 A2995 RMK A01 T00780018  RH  066%=      5-min Rain = 0
KPD4 171402Z 19010KT 08/02 A2995 RMK A01 T00780018  RH  066%=      5-min Rain = 0
KPD4 171403Z 19009KT 08/02 A2995 RMK A01 T00790018  RH  065%=      5-min Rain = 0
KPD4 171404Z 20009KT 08/02 A2995 RMK A01 T00790018  RH  065%=      5-min Rain = 0
KPD4 171405Z 20008KT 08/02 A2995 RMK A01 T00790018  RH  065%=      5-min Rain = 0
KPD4 171406Z 20009KT 08/02 A2995 RMK A01 T00800019  RH  065%=      5-min Rain = 0
KPD4 171407Z 20009KT 08/02 A2995 RMK A01 T00820020  RH  065%=      5-min Rain = 0
KPD4 171408Z 19009KT 08/02 A2995 RMK A01 T00820019  RH  064%=      5-min Rain = 0
KPD4 171409Z 20010KT 08/02 A2995 RMK A01 T00830018  RH  064%=      5-min Rain = 0
KPD4 171410Z 19011KT 08/02 A2995 RMK A01 T00840018  RH  063%=      5-min Rain = 0
KPD4 171411Z 20010KT 08/02 A2995 RMK A01 T00840017  RH  063%=      5-min Rain = 0
KPD4 171412Z 20010KT 09/02 A2995 RMK A01 T00850018  RH  063%=      5-min Rain = 0
KPD4 171413Z 20010KT 09/02 A2995 RMK A01 T00850018  RH  063%=      5-min Rain = 0
KPD4 171414Z 21011KT 09/02 A2995 RMK A01 T00870019  RH  062%=      5-min Rain = 0
KPD4 171415Z 20010KT 09/02 A2995 RMK A01 T00880018  RH  062%=      5-min Rain = 0
KPD4 171416Z 20010KT 09/02 A2995 RMK A01 T00890019  RH  061%=      5-min Rain = 0
KPD4 171417Z 20011KT 09/02 A2995 RMK A01 T00900019  RH  061%=      5-min Rain = 0
KPD4 171418Z 20010KT 09/02 A2995 RMK A01 T00920019  RH  060%=      5-min Rain = 0
KPD4 171419Z 20010KT 09/02 A2995 RMK A01 T00940020  RH  060%=      5-min Rain = 0
KPD4 171420Z 20011KT 10/02 A2995 RMK A01 T00950020  RH  060%=      5-min Rain = 0
KPD4 171421Z 20010KT 10/02 A2995 RMK A01 T00960020  RH  059%=      5-min Rain = 0
KPD4 171422Z 20010KT 10/02 A2995 RMK A01 T00970021  RH  059%=      5-min Rain = 0
KPD4 171423Z 20009KT 10/02 A2995 RMK A01 T00980020  RH  058%=      5-min Rain = 0
KPD4 171424Z 20010KT 10/02 A2995 RMK A01 T00990020  RH  058%=      5-min Rain = 0
KPD4 171425Z 19009KT 10/02 A2995 RMK A01 T01000020  RH  058%=      5-min Rain = 0
KPD4 171426Z 20009KT 10/02 A2995 RMK A01 T01000021  RH  058%=      5-min Rain = 0
KPD4 171427Z 20009KT 10/02 A2995 RMK A01 T01020022  RH  058%=      5-min Rain = 0
KPD4 171428Z 19009KT 10/02 A2995 RMK A01 T01030022  RH  057%=      5-min Rain = 0
KPD4 171429Z 19010KT 11/02 A2995 RMK A01 T01050021  RH  056%=      5-min Rain = 0
KPD4 171430Z 19009KT 11/02 A2995 RMK A01 T01060021  RH  056%=      5-min Rain = 0
KPD4 171431Z 19009KT 11/02 A2995 RMK A01 T01060022  RH  056%=      5-min Rain = 0
KPD4 171432Z 19010KT 11/02 A2994 RMK A01 T01080022  RH  055%=      5-min Rain = 0
KPD4 171433Z 19011KT 11/02 A2994 RMK A01 T01090021  RH  055%=      5-min Rain = 0
KPD4 171434Z 19010KT 11/02 A2994 RMK A01 T01090023  RH  055%=      5-min Rain = 0
KPD4 171435Z 19010KT 11/02 A2994 RMK A01 T01120023  RH  054%=      5-min Rain = 0
KPD4 171436Z 19010KT 11/02 A2994 RMK A01 T01130023  RH  054%=      5-min Rain = 0
KPD4 171437Z 19010KT 11/02 A2994 RMK A01 T01140023  RH  054%=      5-min Rain = 0
KPD4 171438Z 19010KT 12/02 A2994 RMK A01 T01150023  RH  053%=      5-min Rain = 0
KPD4 171439Z 19010KT 12/02 A2994 RMK A01 T01150023  RH  053%=      5-min Rain = 0
KPD4 171440Z 18010KT 12/02 A2994 RMK A01 T01160022  RH  052%=      5-min Rain = 0
KPD4 171441Z 18010KT 12/02 A2994 RMK A01 T01170023  RH  053%=      5-min Rain = 0
KPD4 171442Z 19011KT 12/02 A2994 RMK A01 T01190024  RH  052%=      5-min Rain = 0
KPD4 171443Z 19009KT 12/02 A2994 RMK A01 T01190023  RH  052%=      5-min Rain = 0
KPD4 171444Z 19009KT 12/02 A2994 RMK A01 T01210024  RH  052%=      5-min Rain = 0
KPD4 171445Z 19009KT 12/02 A2994 RMK A01 T01220023  RH  051%=      5-min Rain = 0
KPD4 171446Z 19010KT 12/02 A2994 RMK A01 T01220023  RH  051%=      5-min Rain = 0
KPD4 171447Z 18009KT 12/02 A2994 RMK A01 T01230024  RH  051%=      5-min Rain = 0
KPD4 171448Z 19010KT 13/02 A2994 RMK A01 T01250024  RH  050%=      5-min Rain = 0
KPD4 171449Z 19009KT 13/02 A2994 RMK A01 T01260024  RH  050%=      5-min Rain = 0
KPD4 171450Z 19010KT 13/02 A2994 RMK A01 T01270024  RH  049%=      5-min Rain = 0
KPD4 171451Z 19009KT 13/03 A2994 RMK A01 T01290025  RH  049%=      5-min Rain = 0
KPD4 171452Z 19008KT 13/03 A2994 RMK A01 T01300025  RH  049%=      5-min Rain = 0
KPD4 171453Z 19008KT 13/03 A2994 RMK A01 T01320028  RH  049%=      5-min Rain = 0
KPD4 171454Z 19009KT 13/03 A2994 RMK A01 T01340027  RH  048%=      5-min Rain = 0
KPD4 171455Z 19009KT 14/03 A2994 RMK A01 T01360027  RH  048%=      5-min Rain = 0
KPD4 171456Z 18009KT 14/03 A2994 RMK A01 T01360026  RH  047%=      5-min Rain = 0
KPD4 171457Z 19009KT 14/03 A2994 RMK A01 T01370027  RH  047%=      5-min Rain = 0
KPD4 171458Z 21009KT 14/03 A2994 RMK A01 T01400026  RH  046%=      5-min Rain = 0
KPD4 171459Z 20009KT 14/03 A2994 RMK A01 T01440025  RH  045%=      5-min Rain = 0
KPD4 171500Z 19010KT 15/03 A2994 RMK A01 T01480027  RH  044%=      5-min Rain = 0
KPD4 171501Z 20008KT 15/03 A2994 RMK A01 T01480028  RH  044%=      5-min Rain = 0
KPD4 171502Z 20009KT 15/03 A2993 RMK A01 T01490027  RH  044%=      5-min Rain = 0
KPD4 171503Z 19010KT 15/03 A2993 RMK A01 T01510026  RH  043%=      5-min Rain = 0
KPD4 171504Z 19010KT 15/03 A2993 RMK A01 T01510028  RH  043%=      5-min Rain = 0
KPD4 171505Z 19010KT 15/03 A2993 RMK A01 T01520027  RH  043%=      5-min Rain = 0
KPD4 171506Z 20010KT 15/03 A2993 RMK A01 T01520026  RH  043%=      5-min Rain = 0
KPD4 171507Z 20009KT 15/03 A2993 RMK A01 T01530025  RH  042%=      5-min Rain = 0
KPD4 171508Z 19009KT 15/03 A2993 RMK A01 T01540028  RH  043%=      5-min Rain = 0
KPD4 171509Z 20010KT 16/03 A2993 RMK A01 T01560028  RH  042%=      5-min Rain = 0
KPD4 171510Z 20010KT 16/03 A2993 RMK A01 T01570027  RH  042%=      5-min Rain = 0
KPD4 171511Z 21010KT 16/03 A2993 RMK A01 T01580026  RH  041%=      5-min Rain = 0
KPD4 171512Z 21011KT 16/02 A2993 RMK A01 T01580023  RH  040%=      5-min Rain = 0
KPD4 171513Z 20010KT 16/02 A2993 RMK A01 T01590024  RH  040%=      5-min Rain = 0
KPD4 171514Z 21011KT 16/03 A2993 RMK A01 T01610025  RH  040%=      5-min Rain = 0
KPD4 171515Z 20010G16KT 16/03 A2993 RMK A01 T01630025  RH  040%=      5-min Rain = 0
KPD4 171516Z 21015KT 16/02 A2993 RMK A01 T01640021  RH  038%=      5-min Rain = 0
KPD4 171517Z 22013KT 17/02 A2993 RMK A01 T01660020  RH  038%=      5-min Rain = 0
KPD4 171518Z 21013KT 17/02 A2993 RMK A01 T01680019  RH  037%=      5-min Rain = 0
KPD4 171519Z 21015KT 17/02 A2993 RMK A01 T01680020  RH  037%=      5-min Rain = 0
KPD4 171520Z 21016KT 17/02 A2993 RMK A01 T01690018  RH  036%=      5-min Rain = 0
KPD4 171521Z 21015KT 17/02 A2993 RMK A01 T01680018  RH  036%=      5-min Rain = 0
KPD4 171522Z 22014KT 17/02 A2993 RMK A01 T01670019  RH  037%=      5-min Rain = 0
KPD4 171523Z 21012KT 17/02 A2993 RMK A01 T01690019  RH  037%=      5-min Rain = 0
KPD4 171524Z 21012KT 17/02 A2993 RMK A01 T01690020  RH  037%=      5-min Rain = 0
KPD4 171525Z 22012KT 17/02 A2993 RMK A01 T01720024  RH  037%=      5-min Rain = 0
KPD4 171526Z 22014G19KT 18/02 A2992 RMK A01 T01760024  RH  036%=      5-min Rain = 0
KPD4 171527Z 23016KT 18/02 A2992 RMK A01 T01760019  RH  035%=      5-min Rain = 0
KPD4 171528Z 23013KT 17/02 A2992 RMK A01 T01730019  RH  035%=      5-min Rain = 0
KPD4 171529Z 22010KT 17/02 A2992 RMK A01 T01740021  RH  036%=      5-min Rain = 0
KPD4 171530Z 21013KT 18/02 A2992 RMK A01 T01770024  RH  036%=      5-min Rain = 0
KPD4 171531Z 21011KT 18/02 A2992 RMK A01 T01780022  RH  035%=      5-min Rain = 0
KPD4 171532Z 22012KT 18/02 A2992 RMK A01 T01790024  RH  035%=      5-min Rain = 0
KPD4 171533Z 19011KT 18/03 A2992 RMK A01 T01820025  RH  035%=      5-min Rain = 0
KPD4 171534Z 19013KT 18/02 A2992 RMK A01 T01830024  RH  035%=      5-min Rain = 0
KPD4 171535Z 19013KT 18/02 A2992 RMK A01 T01830023  RH  034%=      5-min Rain = 0
KPD4 171536Z 20013KT 18/02 A2992 RMK A01 T01810023  RH  035%=      5-min Rain = 0
KPD4 171537Z 20012KT 18/02 A2992 RMK A01 T01810022  RH  035%=      5-min Rain = 0
KPD4 171538Z 19011KT 18/02 A2992 RMK A01 T01800021  RH  035%=      5-min Rain = 0
KPD4 171539Z 19012KT 18/02 A2992 RMK A01 T01800023  RH  035%=      5-min Rain = 0
KPD4 171540Z 19010KT 18/03 A2992 RMK A01 T01800025  RH  035%=      5-min Rain = 0
KPD4 171541Z 19013KT 18/03 A2992 RMK A01 T01820025  RH  035%=      5-min Rain = 0
KPD4 171542Z 20013KT 18/02 A2992 RMK A01 T01830024  RH  035%=      5-min Rain = 0
KPD4 171543Z 20013KT 18/02 A2992 RMK A01 T01830024  RH  035%=      5-min Rain = 0
KPD4 171544Z 20012KT 18/02 A2992 RMK A01 T01840024  RH  034%=      5-min Rain = 0
KPD4 171545Z 20014KT 18/02 A2992 RMK A01 T01840024  RH  034%=      5-min Rain = 0
KPD4 171546Z 21013KT 19/02 A2992 RMK A01 T01850023  RH  034%=      5-min Rain = 0
KPD4 171547Z 21013KT 19/02 A2992 RMK A01 T01850022  RH  034%=      5-min Rain = 0
KPD4 171548Z 20011KT 19/03 A2992 RMK A01 T01860026  RH  034%=      5-min Rain = 0
KPD4 171549Z 19013KT 19/03 A2992 RMK A01 T01900027  RH  034%=      5-min Rain = 0
KPD4 171550Z 20015KT 19/02 A2992 RMK A01 T01910024  RH  033%=      5-min Rain = 0
KPD4 171551Z 20014KT 19/02 A2992 RMK A01 T01890023  RH  033%=      5-min Rain = 0
KPD4 171552Z 20015KT 19/02 A2992 RMK A01 T01880023  RH  033%=      5-min Rain = 0
KPD4 171553Z 21015KT 19/02 A2992 RMK A01 T01880023  RH  033%=      5-min Rain = 0
KPD4 171554Z 21015KT 19/02 A2992 RMK A01 T01890024  RH  033%=      5-min Rain = 0
KPD4 171555Z 20015KT 19/02 A2992 RMK A01 T01900023  RH  033%=      5-min Rain = 0
KPD4 171556Z 20015KT 19/02 A2992 RMK A01 T01920024  RH  033%=      5-min Rain = 0
KPD4 171557Z 21017KT 19/02 A2991 RMK A01 T01930024  RH  032%=      5-min Rain = 0
KPD4 171558Z 20015KT 19/03 A2991 RMK A01 T01940025  RH  032%=      5-min Rain = 0
KPD4 171559Z 20013KT 20/03 A2991 RMK A01 T01950025  RH  032%=      5-min Rain = 0
KPD4 171600Z 21014KT 20/03 A2991 RMK A01 T01970026  RH  032%=      5-min Rain = 0
KPD4 171601Z 22016KT 20/03 A2991 RMK A01 T01980025  RH  032%=      5-min Rain = 0
KPD4 171602Z 22016KT 20/02 A2991 RMK A01 T01990024  RH  031%=      5-min Rain = 0
KPD4 171603Z 22014KT 20/02 A2991 RMK A01 T01990024  RH  031%=      5-min Rain = 0
KPD4 171604Z 21015G20KT 20/03 A2991 RMK A01 T02010026  RH  031%=      5-min Rain = 0
KPD4 171605Z 21017KT 20/03 A2991 RMK A01 T02020025  RH  031%=      5-min Rain = 0
KPD4 171606Z 22015KT 20/03 A2991 RMK A01 T02030025  RH  031%=      5-min Rain = 0
KPD4 171607Z 22015KT 20/03 A2991 RMK A01 T02040025  RH  031%=      5-min Rain = 0
KPD4 171608Z 20014G19KT 20/03 A2991 RMK A01 T02040026  RH  031%=      5-min Rain = 0
KPD4 171609Z 21016KT 21/03 A2991 RMK A01 T02060026  RH  030%=      5-min Rain = 0
KPD4 171610Z 21018G23KT 21/02 A2991 RMK A01 T02070024  RH  030%=      5-min Rain = 0
KPD4 171611Z 22019KT 21/02 A2991 RMK A01 T02080023  RH  030%=      5-min Rain = 0
KPD4 171612Z 22015KT 21/02 A2991 RMK A01 T02080022  RH  029%=      5-min Rain = 0
KPD4 171613Z 22012KT 21/03 A2991 RMK A01 T02080026  RH  030%=      5-min Rain = 0
KPD4 171614Z 22013G18KT 21/03 A2991 RMK A01 T02110030  RH  030%=      5-min Rain = 0
KPD4 171615Z 22015KT 22/03 A2991 RMK A01 T02150026  RH  029%=      5-min Rain = 0
KPD4 171616Z 20014KT 22/03 A2991 RMK A01 T02160027  RH  029%=      5-min Rain = 0
KPD4 171617Z 20015KT 22/03 A2991 RMK A01 T02180028  RH  029%=      5-min Rain = 0
KPD4 171618Z 19017KT 22/02 A2991 RMK A01 T02190023  RH  027%=      5-min Rain = 0
KPD4 171619Z 20019KT 22/02 A2991 RMK A01 T02180020  RH  027%=      5-min Rain = 0
KPD4 171620Z 20019KT 22/02 A2991 RMK A01 T02170019  RH  027%=      5-min Rain = 0
KPD4 171621Z 20018KT 22/02 A2991 RMK A01 T02160019  RH  027%=      5-min Rain = 0
KPD4 171622Z 21019KT 22/02 A2991 RMK A01 T02170018  RH  027%=      5-min Rain = 0
KPD4 171623Z 21017KT 22/02 A2991 RMK A01 T02170019  RH  027%=      5-min Rain = 0
KPD4 171624Z 21017KT 22/02 A2991 RMK A01 T02180018  RH  027%=      5-min Rain = 0
KPD4 171625Z 21018KT 22/02 A2991 RMK A01 T02190018  RH  026%=      5-min Rain = 0
KPD4 171626Z 21018KT 22/02 A2991 RMK A01 T02190017  RH  026%=      5-min Rain = 0
KPD4 171627Z 20016KT 22/02 A2991 RMK A01 T02190018  RH  026%=      5-min Rain = 0
KPD4 171628Z 20018G23KT 22/02 A2991 RMK A01 T02200019  RH  026%=      5-min Rain = 0
KPD4 171629Z 21017KT 22/02 A299 RMK A01 T02210016  RH  026%=      5-min Rain = 0
KPD4 171630Z 22016KT 22/02 A2991 RMK A01 T02220017  RH  026%=      5-min Rain = 0
KPD4 171631Z 22016G22KT 22/02 A299 RMK A01 T02230017  RH  026%=      5-min Rain = 0
KPD4 171632Z 23018KT 22/02 A299 RMK A01 T02240016  RH  025%=      5-min Rain = 0
KPD4 171633Z 22020KT 23/02 A299 RMK A01 T02250015  RH  025%=      5-min Rain = 0
KPD4 171634Z 23020KT 23/02 A299 RMK A01 T02250015  RH  025%=      5-min Rain = 0
KPD4 171635Z 22016KT 22/02 A299 RMK A01 T02240015  RH  025%=      5-min Rain = 0
KPD4 171636Z 22015KT 23/02 A299 RMK A01 T02260020  RH  026%=      5-min Rain = 0
KPD4 171637Z 22013KT 23/02 A299 RMK A01 T02300022  RH  025%=      5-min Rain = 0
KPD4 171638Z 21017KT 23/02 A299 RMK A01 T02330021  RH  025%=      5-min Rain = 0
KPD4 171639Z 21017KT 23/02 A299 RMK A01 T02330021  RH  025%=      5-min Rain = 0
KPD4 171640Z 20014KT 23/02 A299 RMK A01 T02300023  RH  026%=      5-min Rain = 0
KPD4 171641Z 20013KT 23/03 A299 RMK A01 T02280028  RH  027%=      5-min Rain = 0
KPD4 171642Z 20013KT 23/03 A299 RMK A01 T02290028  RH  027%=      5-min Rain = 0
KPD4 171643Z 21017KT 23/02 A299 RMK A01 T02290024  RH  026%=      5-min Rain = 0
KPD4 171644Z 22018KT 23/02 A299 RMK A01 T02300019  RH  025%=      5-min Rain = 0
KPD4 171645Z 22018KT 23/02 A299 RMK A01 T02300020  RH  025%=      5-min Rain = 0
KPD4 171646Z 21014KT 23/02 A299 RMK A01 T02310016  RH  024%=      5-min Rain = 0
KPD4 171647Z 22015KT 23/02 A299 RMK A01 T02330018  RH  024%=      5-min Rain = 0
KPD4 171648Z 21017KT 24/02 A299 RMK A01 T02350020  RH  024%=      5-min Rain = 0
KPD4 171649Z 21018KT 23/02 A2989 RMK A01 T02340020  RH  024%=      5-min Rain = 0
KPD4 171650Z 21017KT 23/02 A2989 RMK A01 T02330020  RH  025%=      5-min Rain = 0
KPD4 171651Z 21018KT 23/02 A2989 RMK A01 T02330018  RH  024%=      5-min Rain = 0
KPD4 171652Z 21014KT 23/02 A2989 RMK A01 T02330016  RH  024%=      5-min Rain = 0
KPD4 171653Z 21013KT 23/02 A2989 RMK A01 T02340023  RH  025%=      5-min Rain = 0
KPD4 171654Z 21013KT 24/03 A2989 RMK A01 T02390027  RH  025%=      5-min Rain = 0
KPD4 171655Z 20015KT 24/03 A2989 RMK A01 T02390028  RH  025%=      5-min Rain = 0
KPD4 171656Z 22014G19KT 24/03 A2989 RMK A01 T02420028  RH  025%=      5-min Rain = 0
KPD4 171657Z 23014KT 24/02 A2989 RMK A01 T02430022  RH  024%=      5-min Rain = 0
KPD4 171658Z 20018KT 24/02 A2989 RMK A01 T02430022  RH  024%=      5-min Rain = 0
KPD4 171659Z 20017KT 24/02 A2989 RMK A01 T02400020  RH  024%=      5-min Rain = 0
KPD4 171700Z 20013KT 24/02 A2989 RMK A01 T02370019  RH  024%=      5-min Rain = 0
KPD4 171701Z 22014KT 24/03 A2989 RMK A01 T02380025  RH  025%=      5-min Rain = 0
KPD4 171702Z 21014KT 24/03 A2989 RMK A01 T02430025  RH  024%=      5-min Rain = 0
KPD4 171703Z 22013KT 24/02 A2989 RMK A01 T02420023  RH  024%=      5-min Rain = 0
KPD4 171704Z 21016KT 24/03 A2989 RMK A01 T02440026  RH  024%=      5-min Rain = 0
KPD4 171705Z 21017KT 25/02 A2989 RMK A01 T02450021  RH  023%=      5-min Rain = 0
KPD4 171706Z 20015KT 24/02 A2989 RMK A01 T02430020  RH  023%=      5-min Rain = 0
KPD4 171707Z 21014KT 24/02 A2989 RMK A01 T02430021  RH  023%=      5-min Rain = 0
KPD4 171708Z 20015KT 24/02 A2989 RMK A01 T02440021  RH  023%=      5-min Rain = 0
KPD4 171709Z 20013KT 24/02 A2989 RMK A01 T02440019  RH  023%=      5-min Rain = 0
KPD4 171710Z 20012KT 24/02 A2989 RMK A01 T02420023  RH  024%=      5-min Rain = 0
KPD4 171711Z 21015KT 25/02 A2989 RMK A01 T02480023  RH  023%=      5-min Rain = 0
KPD4 171712Z 21016KT 25/02 A2989 RMK A01 T02500018  RH  022%=      5-min Rain = 0
KPD4 171713Z 21015KT 25/02 A2989 RMK A01 T02500020  RH  022%=      5-min Rain = 0
KPD4 171714Z 22018KT 25/02 A2988 RMK A01 T02500017  RH  022%=      5-min Rain = 0
KPD4 171715Z 22018KT 25/01 A2988 RMK A01 T02490014  RH  021%=      5-min Rain = 0
KPD4 171716Z 23017KT 25/02 A2988 RMK A01 T02470016  RH  022%=      5-min Rain = 0
KPD4 171717Z 22018G23KT 25/02 A2988 RMK A01 T02480017  RH  022%=      5-min Rain = 0
KPD4 171718Z 22020KT 25/01 A2988 RMK A01 T02490014  RH  021%=      5-min Rain = 0
KPD4 171719Z 23020KT 25/01 A2988 RMK A01 T02500013  RH  021%=      5-min Rain = 0
KPD4 171720Z 22016KT 25/01 A2988 RMK A01 T02510013  RH  021%=      5-min Rain = 0
KPD4 171721Z 21015KT 25/02 A2988 RMK A01 T02540017  RH  021%=      5-min Rain = 0
KPD4 171722Z 20019KT 26/01 A2988 RMK A01 T02570014  RH  021%=      5-min Rain = 0
KPD4 171723Z 20020KT 25/01 A2988 RMK A01 T02540012  RH  021%=      5-min Rain = 0
KPD4 171724Z 21019G24KT 25/01 A2988 RMK A01 T02540012  RH  021%=      5-min Rain = 0
KPD4 171725Z 21019KT 26/01 A2988 RMK A01 T02550011  RH  020%=      5-min Rain = 0
KPD4 171726Z 20015KT 25/01 A2988 RMK A01 T02540014  RH  021%=      5-min Rain = 0
KPD4 171727Z 21017KT 25/02 A2988 RMK A01 T02540015  RH  021%=      5-min Rain = 0
KPD4 171728Z 20013KT 26/02 A2988 RMK A01 T02560018  RH  021%=      5-min Rain = 0
KPD4 171729Z 19018KT 26/02 A2988 RMK A01 T02610018  RH  021%=      5-min Rain = 0
KPD4 171730Z 20017KT 26/02 A2988 RMK A01 T02610015  RH  020%=      5-min Rain = 0
KPD4 171731Z 20019KT 26/01 A2988 RMK A01 T02620014  RH  020%=      5-min Rain = 0
KPD4 171732Z 22018KT 26/01 A2988 RMK A01 T02630013  RH  020%=      5-min Rain = 0
KPD4 171733Z 22016G21KT 26/01 A2988 RMK A01 T02640012  RH  019%=      5-min Rain = 0
KPD4 171734Z 21018G25KT 26/01 A2988 RMK A01 T02640012  RH  019%=      5-min Rain = 0
KPD4 171735Z 22017KT 27/01 A2988 RMK A01 T02650009  RH  019%=      5-min Rain = 0
KPD4 171736Z 21019KT 27/01 A2988 RMK A01 T02660010  RH  019%=      5-min Rain = 0
KPD4 171737Z 21019KT 27/01 A2988 RMK A01 T02670008  RH  018%=      5-min Rain = 0
KPD4 171738Z 21018KT 27/01 A2988 RMK A01 T02670007  RH  018%=      5-min Rain = 0
KPD4 171739Z 20017KT 27/01 A2988 RMK A01 T02650008  RH  019%=      5-min Rain = 0
KPD4 171740Z 20020KT 27/01 A2988 RMK A01 T02660008  RH  019%=      5-min Rain = 0
KPD4 171741Z 20017KT 27/01 A2988 RMK A01 T02660006  RH  018%=      5-min Rain = 0
KPD4 171742Z 20019KT 27/01 A2987 RMK A01 T02670008  RH  018%=      5-min Rain = 0
KPD4 171743Z 20021KT 27/01 A2987 RMK A01 T02690005  RH  018%=      5-min Rain = 0
KPD4 171744Z 21020KT 27/01 A2987 RMK A01 T02690005  RH  018%=      5-min Rain = 0
KPD4 171745Z 21019KT 27/01 A2987 RMK A01 T02700007  RH  018%=      5-min Rain = 0
KPD4 171746Z 20017KT 27/01 A2987 RMK A01 T02700009  RH  018%=      5-min Rain = 0
KPD4 171747Z 20017KT 27/01 A2987 RMK A01 T02710010  RH  018%=      5-min Rain = 0
KPD4 171748Z 21019KT 27/01 A2987 RMK A01 T02710009  RH  018%=      5-min Rain = 0
KPD4 171749Z 19020KT 27/00 A2987 RMK A01 T02730004  RH  017%=      5-min Rain = 0
KPD4 171750Z 20021KT 27/00 A2987 RMK A01 T02720002  RH  017%=      5-min Rain = 0
KPD4 171751Z 21021KT 27/00 A2987 RMK A01 T02720003  RH  017%=      5-min Rain = 0
KPD4 171752Z 21018G23KT 27/00 A2987 RMK A01 T02740003  RH  017%=      5-min Rain = 0
KPD4 171753Z 21021KT 28/00 A2987 RMK A01 T02750000  RH  017%=      5-min Rain = 0
KPD4 171754Z 21018KT 28/M00 A2987 RMK A01 T02761001  RH  016%=      5-min Rain = 0
KPD4 171755Z 21020KT 28/00 A2987 RMK A01 T02760002  RH  017%=      5-min Rain = 0
KPD4 171756Z 20022KT 28/M00 A2986 RMK A01 T02771001  RH  016%=      5-min Rain = 0
KPD4 171757Z 21020KT 28/M00 A2986 RMK A01 T02751003  RH  016%=      5-min Rain = 0
KPD4 171758Z 21020KT 28/M00 A2986 RMK A01 T02751002  RH  016%=      5-min Rain = 0
KPD4 171759Z 22021KT 28/M00 A2986 RMK A01 T02761002  RH  016%=      5-min Rain = 0
KPD4 171800Z 21018G23KT 28/00 A2986 RMK A01 T027800-0  RH  016%=      5-min Rain = 0
KPD4 171801Z 22020G25KT 28/M00 A2986 RMK A01 T02801001  RH  016%=      5-min Rain = 0
KPD4 171802Z 22020KT 28/00 A2986 RMK A01 T02800001  RH  016%=      5-min Rain = 0
KPD4 171803Z 21023G28KT 28/M00 A2986 RMK A01 T02811001  RH  016%=      5-min Rain = 0
KPD4 171804Z 22021KT 28/M01 A2986 RMK A01 T02801007  RH  015%=      5-min Rain = 0
KPD4 171805Z 22020KT 28/M00 A2986 RMK A01 T02771004  RH  016%=      5-min Rain = 0
KPD4 171806Z 22019KT 28/M00 A2986 RMK A01 T02791001  RH  016%=      5-min Rain = 0
KPD4 171807Z 22019KT 28/00 A2986 RMK A01 T02800001  RH  016%=      5-min Rain = 0
KPD4 171808Z 21020KT 28/00 A2986 RMK A01 T02810002  RH  016%=      5-min Rain = 0
KPD4 171809Z 20020KT 28/M00 A2986 RMK A01 T02821001  RH  016%=      5-min Rain = 0
KPD4 171810Z 21017G22KT 28/00 A2986 RMK A01 T02840003  RH  016%=      5-min Rain = 0
KPD4 171811Z 21020KT 29/00 A2985 RMK A01 T02860003  RH  016%=      5-min Rain = 0
KPD4 171812Z 20022KT 29/M00 A2985 RMK A01 T02861002  RH  015%=      5-min Rain = 0
KPD4 171813Z 21019KT 28/M01 A2985 RMK A01 T02831005  RH  015%=      5-min Rain = 0
KPD4 171814Z 22019KT 28/M00 A2985 RMK A01 T02831001  RH  016%=      5-min Rain = 0
KPD4 171815Z 22021G26KT 29/00 A2985 RMK A01 T028500-0  RH  016%=      5-min Rain = 0
KPD4 171816Z 22020KT 29/M00 A2985 RMK A01 T02851001  RH  016%=      5-min Rain = 0
KPD4 171817Z 22016G21KT 29/00 A2985 RMK A01 T02850001  RH  016%=      5-min Rain = 0
KPD4 171818Z 22017G23KT 29/01 A2985 RMK A01 T02880008  RH  016%=      5-min Rain = 0
KPD4 171819Z 21019KT 29/01 A2985 RMK A01 T02890006  RH  016%=      5-min Rain = 0
KPD4 171820Z 21020KT 29/01 A2985 RMK A01 T02870005  RH  016%=      5-min Rain = 0
KPD4 171821Z 20021KT 29/00 A2985 RMK A01 T02850001  RH  016%=      5-min Rain = 0
KPD4 171822Z 21019KT 29/00 A2985 RMK A01 T02850001  RH  016%=      5-min Rain = 0
KPD4 171823Z 21017KT 28/00 A2985 RMK A01 T02840003  RH  016%=      5-min Rain = 0
KPD4 171824Z 21018G25KT 29/01 A2985 RMK A01 T02850005  RH  016%=      5-min Rain = 0
KPD4 171825Z 22019KT 29/01 A2985 RMK A01 T02880005  RH  016%=      5-min Rain = 0
KPD4 171826Z 21015G21KT 29/01 A2985 RMK A01 T02880005  RH  016%=      5-min Rain = 0
KPD4 171827Z 20020G25KT 29/00 A2985 RMK A01 T02880004  RH  016%=      5-min Rain = 0
KPD4 171828Z 20024KT 29/00 A2984 RMK A01 T02870001  RH  016%=      5-min Rain = 0
KPD4 171829Z 21021G26KT 29/M00 A2984 RMK A01 T02851001  RH  016%=      5-min Rain = 0
KPD4 171830Z 21018KT 28/M00 A2985 RMK A01 T02841001  RH  016%=      5-min Rain = 0
KPD4 171831Z 20018KT 28/00 A2985 RMK A01 T02840002  RH  016%=      5-min Rain = 0
KPD4 171832Z 21022KT 29/00 A2984 RMK A01 T02860001  RH  016%=      5-min Rain = 0
KPD4 171833Z 21020G25KT 29/00 A2984 RMK A01 T02850001  RH  016%=      5-min Rain = 0
KPD4 171834Z 21018G24KT 28/00 A2984 RMK A01 T02840004  RH  016%=      5-min Rain = 0
KPD4 171835Z 20018KT 29/01 A2984 RMK A01 T02870005  RH  016%=      5-min Rain = 0
KPD4 171836Z 20018KT 29/01 A2984 RMK A01 T02900006  RH  016%=      5-min Rain = 0
KPD4 171837Z 20018KT 29/00 A2984 RMK A01 T02890002  RH  016%=      5-min Rain = 0
KPD4 171838Z 20018G23KT 29/01 A2984 RMK A01 T02880007  RH  016%=      5-min Rain = 0
KPD4 171839Z 20018KT 29/01 A2984 RMK A01 T02890009  RH  016%=      5-min Rain = 0
KPD4 171840Z 21017KT 29/01 A2984 RMK A01 T02890008  RH  016%=      5-min Rain = 0
KPD4 171841Z 22015KT 29/01 A2984 RMK A01 T02900008  RH  016%=      5-min Rain = 0
KPD4 171842Z 21017G22KT 29/01 A2984 RMK A01 T02900008  RH  016%=      5-min Rain = 0
KPD4 171843Z 21017KT 29/01 A2984 RMK A01 T02880007  RH  016%=      5-min Rain = 0
KPD4 171844Z 20019KT 29/01 A2984 RMK A01 T02860012  RH  017%=      5-min Rain = 0
KPD4 171845Z 19018KT 29/01 A2984 RMK A01 T02860014  RH  017%=      5-min Rain = 0
KPD4 171846Z 19020KT 29/01 A2984 RMK A01 T02850014  RH  017%=      5-min Rain = 0
KPD4 171847Z 19017KT 29/02 A2984 RMK A01 T02850015  RH  017%=      5-min Rain = 0
KPD4 171848Z 21017G22KT 29/01 A2984 RMK A01 T02870010  RH  017%=      5-min Rain = 0
KPD4 171849Z 21014KT 29/01 A2984 RMK A01 T02870010  RH  017%=      5-min Rain = 0
KPD4 171850Z 19018KT 29/01 A2984 RMK A01 T02900013  RH  017%=      5-min Rain = 0
KPD4 171851Z 21016G21KT 29/01 A2983 RMK A01 T02910010  RH  016%=      5-min Rain = 0
KPD4 171852Z 21015KT 29/01 A2983 RMK A01 T02920013  RH  017%=      5-min Rain = 0
KPD4 171853Z 20016KT 29/02 A2983 RMK A01 T02940017  RH  017%=      5-min Rain = 0
KPD4 171854Z 20019KT 29/01 A2983 RMK A01 T02940013  RH  016%=      5-min Rain = 0
KPD4 171855Z 19020KT 29/01 A2983 RMK A01 T02900010  RH  016%=      5-min Rain = 0
KPD4 171856Z 19020KT 29/01 A2983 RMK A01 T02870009  RH  017%=      5-min Rain = 0
KPD4 171857Z 20017KT 29/01 A2983 RMK A01 T02860011  RH  017%=      5-min Rain = 0
KPD4 171858Z 20014G21KT 29/01 A2983 RMK A01 T02870010  RH  017%=      5-min Rain = 0
KPD4 171859Z 21017KT 29/01 A2983 RMK A01 T02890012  RH  017%=      5-min Rain = 0
KPD4 171900Z 22021KT 29/01 A2983 RMK A01 T02930008  RH  016%=      5-min Rain = 0
KPD4 171901Z 22022KT 29/M00 A2983 RMK A01 T02911001  RH  015%=      5-min Rain = 0
KPD4 171902Z 22021G28KT 29/M00 A2982 RMK A01 T02881003  RH  015%=      5-min Rain = 0
KPD4 171903Z 22016KT 29/00 A2983 RMK A01 T02880001  RH  016%=      5-min Rain = 0
KPD4 171904Z 20018KT 29/01 A2983 RMK A01 T02910006  RH  016%=      5-min Rain = 0
KPD4 171905Z 21021G26KT 29/00 A2982 RMK A01 T02920002  RH  015%=      5-min Rain = 0
KPD4 171906Z 22023KT 29/M00 A2982 RMK A01 T02911003  RH  015%=      5-min Rain = 0
KPD4 171907Z 22021KT 29/M00 A2982 RMK A01 T02911004  RH  015%=      5-min Rain = 0
KPD4 171908Z 23022KT 29/M01 A2982 RMK A01 T02921007  RH  014%=      5-min Rain = 0
KPD4 171909Z 22023G28KT 29/M01 A2982 RMK A01 T02911008  RH  014%=      5-min Rain = 0
KPD4 171910Z 21024G30KT 29/M01 A2982 RMK A01 T02901008  RH  014%=      5-min Rain = 0
KPD4 171911Z 22020G26KT 29/M01 A2982 RMK A01 T02911008  RH  014%=      5-min Rain = 0
KPD4 171912Z 21021G31KT 29/M01 A2982 RMK A01 T02921006  RH  014%=      5-min Rain = 0
KPD4 171913Z 21023KT 29/M01 A2981 RMK A01 T02941014  RH  013%=      5-min Rain = 0
KPD4 171914Z 22023G28KT 29/M01 A2981 RMK A01 T02921013  RH  014%=      5-min Rain = 0
KPD4 171915Z 22023KT 29/M01 A2981 RMK A01 T02911006  RH  015%=      5-min Rain = 0
KPD4 171916Z 21023KT 29/M01 A2981 RMK A01 T02901006  RH  015%=      5-min Rain = 0
KPD4 171917Z 22021G26KT 29/M01 A2981 RMK A01 T02901005  RH  015%=      5-min Rain = 0
KPD4 171918Z 21019G25KT 29/M00 A2981 RMK A01 T02901001  RH  015%=      5-min Rain = 0
KPD4 171919Z 20021KT 29/M00 A2981 RMK A01 T02911001  RH  015%=      5-min Rain = 0
KPD4 171920Z 21018KT 29/M00 A2981 RMK A01 T02921002  RH  015%=      5-min Rain = 0
KPD4 171921Z 22017KT 29/00 A2981 RMK A01 T02930002  RH  015%=      5-min Rain = 0
KPD4 171922Z 21020KT 30/01 A2981 RMK A01 T02950006  RH  015%=      5-min Rain = 0
KPD4 171923Z 21019KT 30/01 A2981 RMK A01 T02970007  RH  015%=      5-min Rain = 0
KPD4 171924Z 21018G23KT 30/01 A2981 RMK A01 T02990005  RH  015%=      5-min Rain = 0
KPD4 171925Z 21019G24KT 30/01 A2981 RMK A01 T02980005  RH  015%=      5-min Rain = 0
KPD4 171926Z 22020KT 30/01 A2981 RMK A01 T02960005  RH  015%=      5-min Rain = 0
KPD4 171927Z 22019G25KT 29/01 A2981 RMK A01 T02940005  RH  016%=      5-min Rain = 0
KPD4 171928Z 22016KT 29/01 A2981 RMK A01 T02940006  RH  016%=      5-min Rain = 0
KPD4 171929Z 21018KT 30/01 A2981 RMK A01 T02950006  RH  015%=      5-min Rain = 0
KPD4 171930Z 21017KT 29/01 A2981 RMK A01 T02940005  RH  015%=      5-min Rain = 0
KPD4 171931Z 22019KT 29/01 A2981 RMK A01 T02930007  RH  016%=      5-min Rain = 0
KPD4 171932Z 23018KT 29/01 A2981 RMK A01 T02940005  RH  015%=      5-min Rain = 0
KPD4 171933Z 20021KT 29/01 A2981 RMK A01 T02940006  RH  015%=      5-min Rain = 0
KPD4 171934Z 19022KT 29/00 A2981 RMK A01 T02940002  RH  015%=      5-min Rain = 0
KPD4 171935Z 20021KT 29/00 A2981 RMK A01 T02930003  RH  015%=      5-min Rain = 0
KPD4 171936Z 20015G20KT 29/01 A2981 RMK A01 T02940005  RH  015%=      5-min Rain = 0
KPD4 171937Z 21017KT 30/01 A298 RMK A01 T02970010  RH  016%=      5-min Rain = 0
KPD4 171938Z 21021G28KT 30/01 A298 RMK A01 T03010006  RH  015%=      5-min Rain = 0
KPD4 171939Z 21023KT 30/M00 A298 RMK A01 T03001002  RH  014%=      5-min Rain = 0
KPD4 171940Z 20022KT 29/M01 A298 RMK A01 T02941006  RH  014%=      5-min Rain = 0
KPD4 171941Z 21022G27KT 29/M00 A298 RMK A01 T02911004  RH  015%=      5-min Rain = 0
KPD4 171942Z 20019KT 29/00 A298 RMK A01 T029100-0  RH  015%=      5-min Rain = 0
KPD4 171943Z 20021G28KT 29/00 A298 RMK A01 T02920000  RH  015%=      5-min Rain = 0
KPD4 171944Z 21021G26KT 29/00 A298 RMK A01 T02920001  RH  015%=      5-min Rain = 0
KPD4 171945Z 21016KT 29/00 A298 RMK A01 T02900003  RH  016%=      5-min Rain = 0
KPD4 171946Z 20016G22KT 29/01 A298 RMK A01 T02940011  RH  016%=      5-min Rain = 0
KPD4 171947Z 21021KT 30/01 A298 RMK A01 T02980007  RH  015%=      5-min Rain = 0
KPD4 171948Z 22017KT 30/01 A298 RMK A01 T02960006  RH  015%=      5-min Rain = 0
KPD4 171949Z 20018G26KT 29/01 A298 RMK A01 T02940009  RH  016%=      5-min Rain = 0
KPD4 171950Z 20022G29KT 30/01 A298 RMK A01 T02960007  RH  015%=      5-min Rain = 0
KPD4 171951Z 22020KT 30/01 A2979 RMK A01 T02950005  RH  015%=      5-min Rain = 0
KPD4 171952Z 20015G20KT 30/01 A298 RMK A01 T02950009  RH  016%=      5-min Rain = 0
KPD4 171953Z 20019KT 30/01 A298 RMK A01 T02990009  RH  016%=      5-min Rain = 0
KPD4 171954Z 21021KT 30/01 A2979 RMK A01 T02970005  RH  015%=      5-min Rain = 0
KPD4 171955Z 21021G26KT 29/M00 A2979 RMK A01 T02931001  RH  015%=      5-min Rain = 0
KPD4 171956Z 21021KT 29/M00 A2979 RMK A01 T02911001  RH  015%=      5-min Rain = 0
KPD4 171957Z 21020G25KT 29/00 A2979 RMK A01 T02900001  RH  015%=      5-min Rain = 0
KPD4 171958Z 22019G24KT 29/00 A2979 RMK A01 T02890003  RH  016%=      5-min Rain = 0
KPD4 171959Z 20016KT 29/01 A2979 RMK A01 T02880005  RH  016%=      5-min Rain = 0
KPD4 172000Z 21021KT 29/00 A2979 RMK A01 T02900003  RH  016%=      5-min Rain = 0
KPD4 172001Z 20019KT 29/01 A2979 RMK A01 T02910006  RH  016%=      5-min Rain = 0
KPD4 172002Z 21018KT 29/01 A2979 RMK A01 T02920006  RH  016%=      5-min Rain = 0
KPD4 172003Z 20023G29KT 29/01 A2979 RMK A01 T02940006  RH  016%=      5-min Rain = 0
KPD4 172004Z 20017KT 29/M00 A2979 RMK A01 T02931001  RH  015%=      5-min Rain = 0
KPD4 172005Z 20015KT 29/00 A2979 RMK A01 T02920002  RH  015%=      5-min Rain = 0
KPD4 172006Z 20021KT 29/01 A2979 RMK A01 T02940005  RH  015%=      5-min Rain = 0
KPD4 172007Z 21022KT 29/01 A2979 RMK A01 T02940006  RH  016%=      5-min Rain = 0
KPD4 172008Z 21015KT 29/01 A2979 RMK A01 T02920007  RH  016%=      5-min Rain = 0
KPD4 172009Z 21019G26KT 29/01 A2978 RMK A01 T02930008  RH  016%=      5-min Rain = 0
KPD4 172010Z 21020KT 30/00 A2978 RMK A01 T02960000  RH  015%=      5-min Rain = 0
KPD4 172011Z 21020KT 30/M00 A2978 RMK A01 T02971002  RH  014%=      5-min Rain = 0
KPD4 172012Z 21023KT 30/M00 A2978 RMK A01 T02981004  RH  014%=      5-min Rain = 0
KPD4 172013Z 21023KT 30/M01 A2978 RMK A01 T02991007  RH  014%=      5-min Rain = 0
KPD4 172014Z 21021KT 30/M01 A2978 RMK A01 T02981012  RH  013%=      5-min Rain = 0
KPD4 172015Z 20020G25KT 30/M01 A2978 RMK A01 T02991011  RH  013%=      5-min Rain = 0
KPD4 172016Z 21021KT 30/M01 A2978 RMK A01 T03001014  RH  013%=      5-min Rain = 0
KPD4 172017Z 20018G23KT 30/M02 A2978 RMK A01 T03001015  RH  013%=      5-min Rain = 0
KPD4 172018Z 20019KT 30/M01 A2978 RMK A01 T03011013  RH  013%=      5-min Rain = 0
KPD4 172019Z 21019G24KT 30/M02 A2978 RMK A01 T03021015  RH  013%=      5-min Rain = 0
KPD4 172020Z 21019KT 30/M01 A2978 RMK A01 T03041013  RH  013%=      5-min Rain = 0
KPD4 172021Z 21018G24KT 30/M01 A2978 RMK A01 T03031011  RH  013%=      5-min Rain = 0
KPD4 172022Z 21022KT 30/M01 A2978 RMK A01 T03041012  RH  013%=      5-min Rain = 0
KPD4 172023Z 21017KT 30/M01 A2978 RMK A01 T03011013  RH  013%=      5-min Rain = 0
KPD4 172024Z 21015G20KT 30/M01 A2978 RMK A01 T03001008  RH  014%=      5-min Rain = 0
KPD4 172025Z 19018G27KT 31/M00 A2978 RMK A01 T03051002  RH  014%=      5-min Rain = 0
KPD4 172026Z 20021KT 31/M01 A2978 RMK A01 T03081006  RH  013%=      5-min Rain = 0
KPD4 172027Z 19016G21KT 31/00 A2978 RMK A01 T03060003  RH  014%=      5-min Rain = 0
KPD4 172028Z 20018KT 31/01 A2978 RMK A01 T03050009  RH  015%=      5-min Rain = 0
KPD4 172029Z 21018KT 30/01 A2978 RMK A01 T03030008  RH  015%=      5-min Rain = 0
KPD4 172030Z 19021G27KT 30/00 A2977 RMK A01 T03010004  RH  015%=      5-min Rain = 0
KPD4 172031Z 20021KT 30/00 A2977 RMK A01 T03000001  RH  014%=      5-min Rain = 0
KPD4 172032Z 19021KT 30/00 A2977 RMK A01 T02990002  RH  015%=      5-min Rain = 0
KPD4 172033Z 19017KT 30/00 A2977 RMK A01 T02990001  RH  015%=      5-min Rain = 0
KPD4 172034Z 19015KT 30/00 A2977 RMK A01 T02980001  RH  015%=      5-min Rain = 0
KPD4 172035Z 20018G25KT 30/M00 A2977 RMK A01 T02991002  RH  014%=      5-min Rain = 0
KPD4 172036Z 21019KT 30/M02 A2977 RMK A01 T03001015  RH  013%=      5-min Rain = 0
KPD4 172037Z 22018G23KT 30/M02 A2977 RMK A01 T03001019  RH  013%=      5-min Rain = 0
KPD4 172038Z 22022KT 30/M02 A2977 RMK A01 T03001022  RH  012%=      5-min Rain = 0
KPD4 172039Z 21022KT 30/M03 A2977 RMK A01 T02981027  RH  012%=      5-min Rain = 0
KPD4 172040Z 21021KT 30/M03 A2977 RMK A01 T02971027  RH  012%=      5-min Rain = 0
KPD4 172041Z 21019KT 30/M03 A2977 RMK A01 T02961026  RH  012%=      5-min Rain = 0
KPD4 172042Z 21018KT 30/M02 A2977 RMK A01 T02951023  RH  012%=      5-min Rain = 0
KPD4 172043Z 21017KT 29/M02 A2977 RMK A01 T02941022  RH  013%=      5-min Rain = 0
KPD4 172044Z 21020KT 29/M02 A2977 RMK A01 T02931018  RH  013%=      5-min Rain = 0
KPD4 172045Z 19020G25KT 29/M02 A2977 RMK A01 T02921015  RH  014%=      5-min Rain = 0
KPD4 172046Z 19021KT 29/M02 A2977 RMK A01 T02921016  RH  013%=      5-min Rain = 0
KPD4 172047Z 19015KT 29/M02 A2977 RMK A01 T02901015  RH  014%=      5-min Rain = 0
KPD4 172048Z 19019KT 29/M01 A2977 RMK A01 T02901012  RH  014%=      5-min Rain = 0
KPD4 172049Z 19022G29KT 29/M02 A2977 RMK A01 T02911017  RH  013%=      5-min Rain = 0
KPD4 172050Z 20022G27KT 29/M02 A2977 RMK A01 T02911021  RH  013%=      5-min Rain = 0
KPD4 172051Z 20022KT 29/M02 A2977 RMK A01 T02901023  RH  013%=      5-min Rain = 0
KPD4 172052Z 21020KT 29/M03 A2977 RMK A01 T02901025  RH  013%=      5-min Rain = 0
KPD4 172053Z 20021KT 29/M03 A2977 RMK A01 T02901025  RH  013%=      5-min Rain = 0
KPD4 172054Z 20019KT 29/M02 A2977 RMK A01 T02911024  RH  013%=      5-min Rain = 0
KPD4 172055Z 21016KT 29/M02 A2977 RMK A01 T02921021  RH  013%=      5-min Rain = 0
KPD4 172056Z 22019KT 29/M02 A2976 RMK A01 T02941016  RH  013%=      5-min Rain = 0
KPD4 172057Z 20016G22KT 29/M01 A2977 RMK A01 T02941014  RH  013%=      5-min Rain = 0
KPD4 172058Z 20021KT 30/M01 A2977 RMK A01 T02951011  RH  014%=      5-min Rain = 0
KPD4 172059Z 20016G21KT 30/M01 A2977 RMK A01 T02951013  RH  013%=      5-min Rain = 0
KPD4 172100Z 19018KT 30/M01 A2977 RMK A01 T02951011  RH  014%=      5-min Rain = 0
KPD4 172101Z 20015KT 30/M01 A2977 RMK A01 T02951010  RH  014%=      5-min Rain = 0
KPD4 172102Z 20018KT 30/M01 A2977 RMK A01 T02971009  RH  014%=      5-min Rain = 0
KPD4 172103Z 19016KT 30/M01 A2976 RMK A01 T02981012  RH  013%=      5-min Rain = 0
KPD4 172104Z 17020KT 30/M01 A2976 RMK A01 T03001008  RH  014%=      5-min Rain = 0
KPD4 172105Z 18018G23KT 30/M01 A2976 RMK A01 T03001011  RH  013%=      5-min Rain = 0
KPD4 172106Z 18020KT 30/M01 A2976 RMK A01 T03011013  RH  013%=      5-min Rain = 0
KPD4 172107Z 20017G24KT 31/M01 A2976 RMK A01 T03051010  RH  013%=      5-min Rain = 0
KPD4 172108Z 20021KT 31/M01 A2976 RMK A01 T03071014  RH  012%=      5-min Rain = 0
KPD4 172109Z 20019G24KT 31/M02 A2976 RMK A01 T03051015  RH  013%=      5-min Rain = 0
KPD4 172110Z 21022G28KT 30/M02 A2976 RMK A01 T03031017  RH  013%=      5-min Rain = 0
KPD4 172111Z 19024KT 30/M02 A2976 RMK A01 T02991021  RH  012%=      5-min Rain = 0
KPD4 172112Z 20019G25KT 30/M02 A2976 RMK A01 T02961018  RH  013%=      5-min Rain = 0
KPD4 172113Z 20022G28KT 30/M02 A2976 RMK A01 T02951021  RH  013%=      5-min Rain = 0
KPD4 172114Z 20018G23KT 29/M02 A2976 RMK A01 T02931019  RH  013%=      5-min Rain = 0
KPD4 172115Z 19020KT 29/M02 A2976 RMK A01 T02931015  RH  013%=      5-min Rain = 0
KPD4 172116Z 19022KT 29/M02 A2976 RMK A01 T02931016  RH  013%=      5-min Rain = 0
KPD4 172117Z 19021KT 29/M02 A2976 RMK A01 T02931017  RH  013%=      5-min Rain = 0
KPD4 172118Z 19021KT 29/M02 A2976 RMK A01 T02921016  RH  013%=      5-min Rain = 0
KPD4 172119Z 20020KT 29/M02 A2976 RMK A01 T02921015  RH  014%=      5-min Rain = 0
KPD4 172120Z 20019KT 29/M01 A2976 RMK A01 T02921014  RH  014%=      5-min Rain = 0
KPD4 172121Z 20022KT 29/M02 A2976 RMK A01 T02931016  RH  013%=      5-min Rain = 0
KPD4 172122Z 20023KT 29/M02 A2976 RMK A01 T02921018  RH  013%=      5-min Rain = 0
KPD4 172123Z 19021KT 29/M02 A2976 RMK A01 T02901019  RH  013%=      5-min Rain = 0
KPD4 172124Z 18020KT 29/M02 A2976 RMK A01 T02891018  RH  013%=      5-min Rain = 0
KPD4 172125Z 18021KT 29/M02 A2976 RMK A01 T02881019  RH  013%=      5-min Rain = 0
KPD4 172126Z 19023KT 29/M02 A2976 RMK A01 T02881019  RH  014%=      5-min Rain = 0
KPD4 172127Z 19019KT 29/M02 A2976 RMK A01 T02881018  RH  014%=      5-min Rain = 0
KPD4 172128Z 19022KT 29/M02 A2976 RMK A01 T02901019  RH  013%=      5-min Rain = 0
KPD4 172129Z 19021KT 29/M02 A2976 RMK A01 T02911022  RH  013%=      5-min Rain = 0
KPD4 172130Z 18018KT 29/M02 A2976 RMK A01 T02931020  RH  013%=      5-min Rain = 0
KPD4 172131Z 19019KT 30/M02 A2976 RMK A01 T02951021  RH  013%=      5-min Rain = 0
KPD4 172132Z 20022KT 30/M02 A2976 RMK A01 T02961022  RH  013%=      5-min Rain = 0
KPD4 172133Z 19018KT 30/M02 A2976 RMK A01 T02961023  RH  013%=      5-min Rain = 0
KPD4 172134Z 18022KT 30/M02 A2976 RMK A01 T02951021  RH  013%=      5-min Rain = 0
KPD4 172135Z 18018KT 30/M02 A2976 RMK A01 T02951022  RH  013%=      5-min Rain = 0
KPD4 172136Z 19021KT 30/M02 A2976 RMK A01 T02951020  RH  013%=      5-min Rain = 0
KPD4 172137Z 20020KT 30/M02 A2976 RMK A01 T02961024  RH  012%=      5-min Rain = 0
KPD4 172138Z 19020G26KT 30/M02 A2976 RMK A01 T02951024  RH  012%=      5-min Rain = 0
KPD4 172139Z 19025KT 30/M03 A2976 RMK A01 T02951027  RH  012%=      5-min Rain = 0
KPD4 172140Z 19021KT 29/M03 A2976 RMK A01 T02921029  RH  012%=      5-min Rain = 0
KPD4 172141Z 20018KT 29/M03 A2976 RMK A01 T02911027  RH  012%=      5-min Rain = 0
KPD4 172142Z 20019G24KT 29/M03 A2976 RMK A01 T02901026  RH  013%=      5-min Rain = 0
KPD4 172143Z 19021KT 29/M03 A2976 RMK A01 T02891027  RH  013%=      5-min Rain = 0
KPD4 172144Z 18019KT 29/M03 A2976 RMK A01 T02871029  RH  013%=      5-min Rain = 0
KPD4 172145Z 19019KT 29/M03 A2976 RMK A01 T02851028  RH  013%=      5-min Rain = 0
KPD4 172146Z 19020KT 28/M03 A2976 RMK A01 T02841029  RH  013%=      5-min Rain = 0
KPD4 172147Z 19017KT 28/M03 A2976 RMK A01 T02831028  RH  013%=      5-min Rain = 0
KPD4 172148Z 19016KT 28/M03 A2976 RMK A01 T02831027  RH  013%=      5-min Rain = 0
KPD4 172149Z 19016KT 28/M03 A2976 RMK A01 T02831027  RH  013%=      5-min Rain = 0
KPD4 172150Z 19018G24KT 28/M03 A2976 RMK A01 T02831027  RH  013%=      5-min Rain = 0
KPD4 172151Z 19018KT 28/M03 A2976 RMK A01 T02821030  RH  013%=      5-min Rain = 0
KPD4 172152Z 19016KT 28/M03 A2976 RMK A01 T02811029  RH  013%=      5-min Rain = 0
KPD4 172153Z 19016KT 28/M03 A2976 RMK A01 T02811027  RH  013%=      5-min Rain = 0
KPD4 172154Z 19016KT 28/M03 A2976 RMK A01 T02821026  RH  013%=      5-min Rain = 0
KPD4 172155Z 19015KT 29/M02 A2976 RMK A01 T02861022  RH  013%=      5-min Rain = 0
KPD4 172156Z 19014KT 29/M02 A2976 RMK A01 T02891021  RH  013%=      5-min Rain = 0
KPD4 172157Z 19019KT 29/M02 A2976 RMK A01 T02901021  RH  013%=      5-min Rain = 0
KPD4 172158Z 19020KT 29/M02 A2976 RMK A01 T02911020  RH  013%=      5-min Rain = 0
KPD4 172159Z 19019KT 29/M02 A2976 RMK A01 T02911018  RH  013%=      5-min Rain = 0
KPD4 172200Z 19020KT 29/M02 A2976 RMK A01 T02911019  RH  013%=      5-min Rain = 0
KPD4 172201Z 19017KT 29/M02 A2976 RMK A01 T02911018  RH  013%=      5-min Rain = 0
KPD4 172202Z 18018KT 29/M02 A2976 RMK A01 T02911017  RH  013%=      5-min Rain = 0
KPD4 172203Z 18017KT 29/M02 A2976 RMK A01 T02921017  RH  013%=      5-min Rain = 0
KPD4 172204Z 19016KT 29/M02 A2976 RMK A01 T02931016  RH  013%=      5-min Rain = 0
KPD4 172205Z 19020G25KT 29/M02 A2976 RMK A01 T02941018  RH  013%=      5-min Rain = 0
KPD4 172206Z 19023KT 29/M02 A2976 RMK A01 T02931024  RH  013%=      5-min Rain = 0
KPD4 172207Z 19018G23KT 29/M02 A2976 RMK A01 T02911021  RH  013%=      5-min Rain = 0
KPD4 172208Z 18017G23KT 29/M02 A2976 RMK A01 T02911020  RH  013%=      5-min Rain = 0
KPD4 172209Z 18017KT 29/M02 A2976 RMK A01 T02911018  RH  013%=      5-min Rain = 0
KPD4 172210Z 18016KT 29/M02 A2976 RMK A01 T02911021  RH  013%=      5-min Rain = 0
KPD4 172211Z 19016KT 29/M02 A2976 RMK A01 T02901017  RH  013%=      5-min Rain = 0
KPD4 172212Z 18017KT 29/M02 A2976 RMK A01 T02901018  RH  013%=      5-min Rain = 0
KPD4 172213Z 19019KT 29/M02 A2976 RMK A01 T02901019  RH  013%=      5-min Rain = 0
KPD4 172214Z 18014KT 29/M02 A2976 RMK A01 T02891020  RH  013%=      5-min Rain = 0
KPD4 172215Z 18015KT 29/M02 A2976 RMK A01 T02891017  RH  014%=      5-min Rain = 0
KPD4 172216Z 18022KT 29/M02 A2975 RMK A01 T02901023  RH  013%=      5-min Rain = 0
KPD4 172217Z 18018G23KT 29/M03 A2975 RMK A01 T02861029  RH  013%=      5-min Rain = 0
KPD4 172218Z 19018KT 28/M03 A2975 RMK A01 T02831027  RH  013%=      5-min Rain = 0
KPD4 172219Z 18016KT 28/M03 A2975 RMK A01 T02821026  RH  013%=      5-min Rain = 0
KPD4 172220Z 20015KT 28/M02 A2975 RMK A01 T02821023  RH  014%=      5-min Rain = 0
KPD4 172221Z 19018KT 28/M02 A2975 RMK A01 T02811022  RH  014%=      5-min Rain = 0
KPD4 172222Z 19019KT 28/M02 A2975 RMK A01 T02811024  RH  014%=      5-min Rain = 0
KPD4 172223Z 18021KT 28/M03 A2975 RMK A01 T02801028  RH  013%=      5-min Rain = 0
KPD4 172224Z 19022KT 28/M03 A2975 RMK A01 T02791028  RH  013%=      5-min Rain = 0
KPD4 172225Z 19019KT 28/M03 A2975 RMK A01 T02781029  RH  013%=      5-min Rain = 0
KPD4 172226Z 19018KT 28/M03 A2975 RMK A01 T02771027  RH  014%=      5-min Rain = 0
KPD4 172227Z 19020KT 28/M03 A2975 RMK A01 T02761028  RH  013%=      5-min Rain = 0
KPD4 172228Z 18017KT 28/M03 A2975 RMK A01 T02751027  RH  014%=      5-min Rain = 0
KPD4 172229Z 18018G23KT 27/M03 A2975 RMK A01 T02741026  RH  014%=      5-min Rain = 0
KPD4 172230Z 19019KT 27/M03 A2975 RMK A01 T02731026  RH  014%=      5-min Rain = 0
KPD4 172231Z 19020KT 27/M03 A2975 RMK A01 T02721027  RH  014%=      5-min Rain = 0
KPD4 172232Z 19020KT 27/M03 A2975 RMK A01 T02711030  RH  014%=      5-min Rain = 0
KPD4 172233Z 19020KT 27/M03 A2975 RMK A01 T02711030  RH  014%=      5-min Rain = 0
KPD4 172234Z 19019KT 27/M03 A2975 RMK A01 T02701030  RH  014%=      5-min Rain = 0
KPD4 172235Z 19018KT 27/M03 A2975 RMK A01 T02701030  RH  014%=      5-min Rain = 0
KPD4 172236Z 19015KT 27/M03 A2975 RMK A01 T02701028  RH  014%=      5-min Rain = 0
KPD4 172237Z 18015KT 27/M03 A2975 RMK A01 T02691027  RH  014%=      5-min Rain = 0
KPD4 172238Z 19016KT 27/M03 A2975 RMK A01 T02691027  RH  014%=      5-min Rain = 0
KPD4 172239Z 18015KT 27/M03 A2975 RMK A01 T02701026  RH  014%=      5-min Rain = 0
KPD4 172240Z 19015KT 27/M03 A2975 RMK A01 T02701026  RH  014%=      5-min Rain = 0
KPD4 172241Z 18015KT 27/M02 A2975 RMK A01 T02691024  RH  014%=      5-min Rain = 0
KPD4 172242Z 18016KT 27/M03 A2975 RMK A01 T02681025  RH  014%=      5-min Rain = 0
KPD4 172243Z 19017KT 27/M03 A2975 RMK A01 T02671025  RH  015%=      5-min Rain = 0
KPD4 172244Z 18017KT 27/M03 A2975 RMK A01 T02671027  RH  014%=      5-min Rain = 0
KPD4 172245Z 18016KT 27/M03 A2975 RMK A01 T02661026  RH  014%=      5-min Rain = 0
KPD4 172246Z 18015KT 27/M03 A2975 RMK A01 T02651026  RH  015%=      5-min Rain = 0
KPD4 172247Z 19015KT 27/M03 A2975 RMK A01 T02651025  RH  015%=      5-min Rain = 0
KPD4 172248Z 18014KT 26/M03 A2975 RMK A01 T02641025  RH  015%=      5-min Rain = 0
KPD4 172249Z 19014KT 26/M02 A2975 RMK A01 T02631024  RH  015%=      5-min Rain = 0
KPD4 172250Z 18016KT 26/M02 A2975 RMK A01 T02631024  RH  015%=      5-min Rain = 0
KPD4 172251Z 18018KT 26/M03 A2975 RMK A01 T02621025  RH  015%=      5-min Rain = 0
KPD4 172252Z 19016KT 26/M03 A2975 RMK A01 T02621025  RH  015%=      5-min Rain = 0
KPD4 172253Z 18016KT 26/M02 A2975 RMK A01 T02621024  RH  015%=      5-min Rain = 0
KPD4 172254Z 18014KT 26/M02 A2975 RMK A01 T02621024  RH  015%=      5-min Rain = 0
KPD4 172255Z 18016KT 26/M02 A2975 RMK A01 T02621023  RH  015%=      5-min Rain = 0
KPD4 172256Z 18016KT 26/M02 A2975 RMK A01 T02621024  RH  015%=      5-min Rain = 0
KPD4 172257Z 18015KT 26/M02 A2975 RMK A01 T02621023  RH  015%=      5-min Rain = 0
KPD4 172258Z 19014KT 26/M02 A2975 RMK A01 T02621022  RH  015%=      5-min Rain = 0
KPD4 172259Z 18015KT 26/M02 A2975 RMK A01 T02611022  RH  015%=      5-min Rain = 0
KPD4 172300Z 18016KT 26/M02 A2974 RMK A01 T02611024  RH  015%=      5-min Rain = 0
KPD4 172301Z 18015KT 26/M02 A2975 RMK A01 T02611023  RH  015%=      5-min Rain = 0
KPD4 172302Z 18015KT 26/M02 A2974 RMK A01 T02601023  RH  015%=      5-min Rain = 0
KPD4 172303Z 18015KT 26/M02 A2975 RMK A01 T02601023  RH  015%=      5-min Rain = 0
KPD4 172304Z 19015KT 26/M02 A2975 RMK A01 T02601024  RH  015%=      5-min Rain = 0
KPD4 172305Z 19016KT 26/M02 A2975 RMK A01 T02601024  RH  015%=      5-min Rain = 0
KPD4 172306Z 18016KT 26/M03 A2975 RMK A01 T02591026  RH  015%=      5-min Rain = 0
KPD4 172307Z 19017KT 26/M03 A2974 RMK A01 T02591027  RH  015%=      5-min Rain = 0
KPD4 172308Z 18017KT 26/M03 A2974 RMK A01 T02591026  RH  015%=      5-min Rain = 0
KPD4 172309Z 19017KT 26/M03 A2974 RMK A01 T02591029  RH  015%=      5-min Rain = 0
KPD4 172310Z 18016KT 26/M03 A2974 RMK A01 T02591027  RH  015%=      5-min Rain = 0
KPD4 172311Z 19016KT 26/M03 A2974 RMK A01 T02581027  RH  015%=      5-min Rain = 0
KPD4 172312Z 18017KT 26/M03 A2974 RMK A01 T02571027  RH  015%=      5-min Rain = 0
KPD4 172313Z 18016KT 26/M03 A2974 RMK A01 T02571027  RH  015%=      5-min Rain = 0
KPD4 172314Z 18015KT 26/M03 A2974 RMK A01 T02571028  RH  015%=      5-min Rain = 0
KPD4 172315Z 18014KT 26/M03 A2975 RMK A01 T02561026  RH  015%=      5-min Rain = 0
KPD4 172316Z 18014KT 26/M03 A2975 RMK A01 T02551027  RH  015%=      5-min Rain = 0
KPD4 172317Z 19014KT 25/M03 A2975 RMK A01 T02541027  RH  015%=      5-min Rain = 0
KPD4 172318Z 18015KT 25/M03 A2975 RMK A01 T02541027  RH  016%=      5-min Rain = 0
KPD4 172319Z 19015KT 25/M03 A2975 RMK A01 T02531027  RH  015%=      5-min Rain = 0
KPD4 172320Z 19014KT 25/M03 A2975 RMK A01 T02531027  RH  016%=      5-min Rain = 0
KPD4 172321Z 19015KT 25/M03 A2975 RMK A01 T02531027  RH  016%=      5-min Rain = 0
KPD4 172322Z 19014KT 25/M03 A2975 RMK A01 T02521027  RH  016%=      5-min Rain = 0
KPD4 172323Z 18015KT 25/M03 A2975 RMK A01 T02521027  RH  016%=      5-min Rain = 0
KPD4 172324Z 19014KT 25/M03 A2975 RMK A01 T02511026  RH  016%=      5-min Rain = 0
KPD4 172325Z 18015KT 25/M03 A2975 RMK A01 T02501027  RH  016%=      5-min Rain = 0
KPD4 172326Z 19016KT 25/M03 A2975 RMK A01 T02501027  RH  016%=      5-min Rain = 0
KPD4 172327Z 19015KT 25/M03 A2975 RMK A01 T02501028  RH  016%=      5-min Rain = 0
KPD4 172328Z 19017KT 25/M03 A2975 RMK A01 T02501028  RH  016%=      5-min Rain = 0
KPD4 172329Z 18016KT 25/M03 A2975 RMK A01 T02501029  RH  016%=      5-min Rain = 0
KPD4 172330Z 19015KT 25/M03 A2975 RMK A01 T02501029  RH  016%=      5-min Rain = 0
KPD4 172331Z 19016KT 25/M03 A2975 RMK A01 T02491029  RH  016%=      5-min Rain = 0
KPD4 172332Z 19017KT 25/M03 A2975 RMK A01 T02481029  RH  016%=      5-min Rain = 0
KPD4 172333Z 19016KT 25/M03 A2975 RMK A01 T02481029  RH  016%=      5-min Rain = 0
KPD4 172334Z 19017KT 25/M03 A2975 RMK A01 T02471028  RH  016%=      5-min Rain = 0
KPD4 172335Z 19017KT 25/M03 A2975 RMK A01 T02471027  RH  016%=      5-min Rain = 0
KPD4 172336Z 18016KT 25/M03 A2975 RMK A01 T02461026  RH  016%=      5-min Rain = 0
KPD4 172337Z 19015KT 25/M03 A2975 RMK A01 T02461026  RH  016%=      5-min Rain = 0
KPD4 172338Z 19015KT 24/M03 A2975 RMK A01 T02441025  RH  017%=      5-min Rain = 0
KPD4 172339Z 18015KT 24/M02 A2975 RMK A01 T02431024  RH  017%=      5-min Rain = 0
KPD4 172340Z 19015KT 24/M03 A2975 RMK A01 T02431025  RH  017%=      5-min Rain = 0
KPD4 172341Z 18013KT 24/M03 A2975 RMK A01 T02421025  RH  017%=      5-min Rain = 0
KPD4 172342Z 18014KT 24/M02 A2975 RMK A01 T02421024  RH  017%=      5-min Rain = 0
KPD4 172343Z 18014KT 24/M02 A2975 RMK A01 T02411024  RH  017%=      5-min Rain = 0
KPD4 172344Z 18013KT 24/M02 A2975 RMK A01 T02411023  RH  017%=      5-min Rain = 0
KPD4 172345Z 18015KT 24/M02 A2975 RMK A01 T02391023  RH  017%=      5-min Rain = 0
KPD4 172346Z 18013KT 24/M02 A2975 RMK A01 T02391022  RH  018%=      5-min Rain = 0
KPD4 172347Z 18016KT 24/M02 A2975 RMK A01 T02391021  RH  018%=      5-min Rain = 0
KPD4 172348Z 18015KT 24/M02 A2975 RMK A01 T02391021  RH  018%=      5-min Rain = 0
KPD4 172349Z 18015KT 24/M02 A2975 RMK A01 T02391019  RH  018%=      5-min Rain = 0
KPD4 172350Z 18014KT 24/M02 A2975 RMK A01 T02381019  RH  018%=      5-min Rain = 0
KPD4 172351Z 18015KT 24/M02 A2974 RMK A01 T02381018  RH  018%=      5-min Rain = 0
KPD4 172352Z 18014KT 24/M02 A2974 RMK A01 T02371017  RH  018%=      5-min Rain = 0
KPD4 172353Z 18012KT 24/M02 A2975 RMK A01 T02361016  RH  019%=      5-min Rain = 0
KPD4 172354Z 18015KT 24/M02 A2975 RMK A01 T02351015  RH  019%=      5-min Rain = 0
KPD4 172355Z 18015KT 24/M02 A2975 RMK A01 T02351015  RH  019%=      5-min Rain = 0
KPD4 172356Z 18015KT 24/M01 A2975 RMK A01 T02351014  RH  019%=      5-min Rain = 0
KPD4 172357Z 18013KT 24/M01 A2975 RMK A01 T02351013  RH  019%=      5-min Rain = 0
KPD4 172358Z 18014KT 23/M01 A2975 RMK A01 T02341013  RH  019%=      5-min Rain = 0
KPD4 172359Z 18015KT 23/M01 A2975 RMK A01 T02341013  RH  019%=      5-min Rain = 0
KPD4 180000Z 18013KT 23/M01 A2975 RMK A01 T02341012  RH  019%=      5-min Rain = 0
KPD4 180001Z 18013KT 23/M01 A2975 RMK A01 T02341012  RH  019%=      5-min Rain = 0
KPD4 180002Z 18014KT 23/M01 A2975 RMK A01 T02331011  RH  020%=      5-min Rain = 0
KPD4 180003Z 18014KT 23/M01 A2975 RMK A01 T02331010  RH  020%=      5-min Rain = 0
KPD4 180004Z 18015KT 23/M01 A2975 RMK A01 T02331010  RH  020%=      5-min Rain = 0
KPD4 180005Z 18015KT 23/M01 A2975 RMK A01 T02331008  RH  020%=      5-min Rain = 0
KPD4 180006Z 18014KT 23/M01 A2975 RMK A01 T02331008  RH  020%=      5-min Rain = 0
KPD4 180007Z 18013KT 23/M01 A2975 RMK A01 T02321007  RH  020%=      5-min Rain = 0
KPD4 180008Z 18013KT 23/M01 A2975 RMK A01 T02311006  RH  021%=      5-min Rain = 0
KPD4 180009Z 18015KT 23/M01 A2975 RMK A01 T02301005  RH  021%=      5-min Rain = 0
KPD4 180010Z 18014KT 23/M00 A2975 RMK A01 T02301004  RH  021%=      5-min Rain = 0
KPD4 180011Z 18014KT 23/M00 A2975 RMK A01 T02301002  RH  021%=      5-min Rain = 0
KPD4 180012Z 17014KT 23/M00 A2975 RMK A01 T02291002  RH  022%=      5-min Rain = 0
KPD4 180013Z 17015KT 23/00 A2975 RMK A01 T022900-0  RH  022%=      5-min Rain = 0
KPD4 180014Z 17014KT 23/00 A2975 RMK A01 T02280001  RH  022%=      5-min Rain = 0
KPD4 180015Z 17015KT 23/00 A2975 RMK A01 T02280001  RH  022%=      5-min Rain = 0
KPD4 180016Z 17014KT 23/00 A2975 RMK A01 T02270002  RH  022%=      5-min Rain = 0
KPD4 180017Z 17014KT 23/00 A2975 RMK A01 T02260003  RH  023%=      5-min Rain = 0
KPD4 180018Z 17013KT 23/00 A2975 RMK A01 T02260004  RH  023%=      5-min Rain = 0
KPD4 180019Z 17015KT 23/00 A2975 RMK A01 T02250004  RH  023%=      5-min Rain = 0
KPD4 180020Z 17014KT 23/01 A2975 RMK A01 T02250005  RH  023%=      5-min Rain = 0
KPD4 180021Z 17014KT 23/01 A2975 RMK A01 T02250005  RH  023%=      5-min Rain = 0
KPD4 180022Z 17014KT 23/01 A2975 RMK A01 T02250006  RH  023%=      5-min Rain = 0
KPD4 180023Z 18015KT 23/01 A2975 RMK A01 T02250006  RH  024%=      5-min Rain = 0
KPD4 180024Z 17016KT 23/01 A2975 RMK A01 T02250007  RH  024%=      5-min Rain = 0
KPD4 180025Z 18014KT 23/01 A2975 RMK A01 T02250008  RH  024%=      5-min Rain = 0
KPD4 180026Z 18015KT 23/01 A2975 RMK A01 T02250008  RH  024%=      5-min Rain = 0
KPD4 180027Z 17013KT 23/01 A2975 RMK A01 T02250009  RH  024%=      5-min Rain = 0
KPD4 180028Z 17016KT 22/01 A2975 RMK A01 T02240009  RH  024%=      5-min Rain = 0
KPD4 180029Z 17016KT 22/01 A2975 RMK A01 T02240009  RH  024%=      5-min Rain = 0
KPD4 180030Z 18016KT 22/01 A2975 RMK A01 T02240009  RH  024%=      5-min Rain = 0
KPD4 180031Z 17013KT 22/01 A2975 RMK A01 T02240009  RH  024%=      5-min Rain = 0
KPD4 180032Z 17015KT 22/01 A2975 RMK A01 T02230009  RH  024%=      5-min Rain = 0
KPD4 180033Z 17013KT 22/01 A2975 RMK A01 T02220010  RH  024%=      5-min Rain = 0
KPD4 180034Z 17015KT 22/01 A2975 RMK A01 T02220010  RH  025%=      5-min Rain = 0
KPD4 180035Z 17016KT 22/01 A2975 RMK A01 T02220010  RH  025%=      5-min Rain = 0
KPD4 180036Z 18015KT 22/01 A2975 RMK A01 T02220011  RH  025%=      5-min Rain = 0
KPD4 180037Z 17015KT 22/01 A2975 RMK A01 T02210010  RH  025%=      5-min Rain = 0
KPD4 180038Z 17015KT 22/01 A2975 RMK A01 T02210011  RH  025%=      5-min Rain = 0
KPD4 180039Z 17013KT 22/01 A2975 RMK A01 T02210011  RH  025%=      5-min Rain = 0
KPD4 180040Z 17017KT 22/01 A2975 RMK A01 T02210011  RH  025%=      5-min Rain = 0
KPD4 180041Z 17013KT 22/01 A2975 RMK A01 T02210011  RH  025%=      5-min Rain = 0
KPD4 180042Z 18015KT 22/01 A2975 RMK A01 T02200011  RH  025%=      5-min Rain = 0
KPD4 180043Z 17015KT 22/01 A2975 RMK A01 T02190011  RH  025%=      5-min Rain = 0
KPD4 180044Z 17015KT 22/01 A2975 RMK A01 T02180011  RH  025%=      5-min Rain = 0
KPD4 180045Z 17015KT 22/01 A2975 RMK A01 T02180011  RH  025%=      5-min Rain = 0
KPD4 180046Z 17015KT 22/01 A2975 RMK A01 T02180011  RH  025%=      5-min Rain = 0
KPD4 180047Z 18016KT 22/01 A2975 RMK A01 T02180011  RH  025%=      5-min Rain = 0
KPD4 180048Z 17015KT 22/01 A2975 RMK A01 T02180011  RH  025%=      5-min Rain = 0
KPD4 180049Z 17015KT 22/01 A2975 RMK A01 T02180011  RH  025%=      5-min Rain = 0
KPD4 180050Z 17014KT 22/01 A2975 RMK A01 T02170012  RH  026%=      5-min Rain = 0
KPD4 180051Z 17015KT 22/01 A2975 RMK A01 T02150011  RH  026%=      5-min Rain = 0
KPD4 180052Z 17014KT 22/01 A2975 RMK A01 T02150011  RH  026%=      5-min Rain = 0
KPD4 180053Z 17015KT 21/01 A2975 RMK A01 T02140012  RH  026%=      5-min Rain = 0
KPD4 180054Z 17015KT 21/01 A2975 RMK A01 T02140012  RH  026%=      5-min Rain = 0
KPD4 180055Z 17014KT 21/01 A2975 RMK A01 T02140012  RH  026%=      5-min Rain = 0
KPD4 180056Z 17014KT 21/01 A2975 RMK A01 T02130012  RH  026%=      5-min Rain = 0
KPD4 180057Z 17015KT 21/01 A2976 RMK A01 T02130012  RH  026%=      5-min Rain = 0
KPD4 180058Z 17013KT 21/01 A2976 RMK A01 T02130012  RH  026%=      5-min Rain = 0
KPD4 180059Z 18014KT 21/01 A2976 RMK A01 T02130012  RH  026%=      5-min Rain = 0
KPD4 180100Z 17015KT 21/01 A2975 RMK A01 T02130012  RH  026%=      5-min Rain = 0
KPD4 180101Z 17015KT 21/01 A2975 RMK A01 T02120012  RH  026%=      5-min Rain = 0
KPD4 180102Z 17014KT 21/01 A2975 RMK A01 T02120012  RH  026%=      5-min Rain = 0
KPD4 180103Z 18015KT 21/01 A2975 RMK A01 T02120011  RH  026%=      5-min Rain = 0
KPD4 180104Z 17014KT 21/01 A2976 RMK A01 T02120012  RH  026%=      5-min Rain = 0
KPD4 180105Z 17014KT 21/01 A2975 RMK A01 T02110011  RH  027%=      5-min Rain = 0
KPD4 180106Z 17013KT 21/01 A2975 RMK A01 T02100011  RH  027%=      5-min Rain = 0
KPD4 180107Z 17013KT 21/01 A2975 RMK A01 T02100011  RH  027%=      5-min Rain = 0
KPD4 180108Z 17014KT 21/01 A2975 RMK A01 T02090011  RH  027%=      5-min Rain = 0
KPD4 180109Z 17013KT 21/01 A2975 RMK A01 T02090011  RH  027%=      5-min Rain = 0
KPD4 180110Z 17014KT 21/01 A2975 RMK A01 T02090011  RH  027%=      5-min Rain = 0
KPD4 180111Z 18014KT 21/01 A2975 RMK A01 T02080010  RH  027%=      5-min Rain = 0
KPD4 180112Z 17014KT 21/01 A2975 RMK A01 T02090011  RH  027%=      5-min Rain = 0
KPD4 180113Z 17012KT 21/01 A2975 RMK A01 T02090011  RH  027%=      5-min Rain = 0
KPD4 180114Z 17012KT 21/01 A2976 RMK A01 T02070010  RH  027%=      5-min Rain = 0
KPD4 180115Z 17012KT 21/01 A2976 RMK A01 T02070010  RH  027%=      5-min Rain = 0
KPD4 180116Z 17013KT 21/01 A2975 RMK A01 T02060011  RH  027%=      5-min Rain = 0
KPD4 180117Z 17012KT 21/01 A2976 RMK A01 T02060010  RH  027%=      5-min Rain = 0
KPD4 180118Z 17011KT 21/01 A2975 RMK A01 T02060010  RH  027%=      5-min Rain = 0
KPD4 180119Z 17012KT 21/01 A2975 RMK A01 T02050010  RH  027%=      5-min Rain = 0
KPD4 180120Z 17012KT 20/01 A2975 RMK A01 T02040010  RH  027%=      5-min Rain = 0
KPD4 180121Z 17012KT 20/01 A2975 RMK A01 T02040010  RH  028%=      5-min Rain = 0
KPD4 180122Z 17012KT 20/01 A2975 RMK A01 T02030010  RH  028%=      5-min Rain = 0
KPD4 180123Z 17013KT 20/01 A2975 RMK A01 T02030011  RH  028%=      5-min Rain = 0
KPD4 180124Z 17012KT 20/01 A2975 RMK A01 T02020010  RH  028%=      5-min Rain = 0
KPD4 180125Z 17013KT 20/01 A2975 RMK A01 T02020011  RH  028%=      5-min Rain = 0
KPD4 180126Z 17013KT 20/01 A2975 RMK A01 T02010011  RH  028%=      5-min Rain = 0
KPD4 180127Z 17013KT 20/01 A2975 RMK A01 T02010011  RH  028%=      5-min Rain = 0
KPD4 180128Z 16014KT 20/01 A2975 RMK A01 T02000011  RH  028%=      5-min Rain = 0
KPD4 180129Z 17013KT 20/01 A2975 RMK A01 T02000012  RH  028%=      5-min Rain = 0
KPD4 180130Z 17013KT 20/01 A2975 RMK A01 T01990012  RH  029%=      5-min Rain = 0
KPD4 180131Z 17014KT 20/01 A2975 RMK A01 T01990012  RH  029%=      5-min Rain = 0
KPD4 180132Z 16014KT 20/01 A2975 RMK A01 T01980012  RH  029%=      5-min Rain = 0
KPD4 180133Z 16013KT 20/01 A2975 RMK A01 T01970012  RH  029%=      5-min Rain = 0
KPD4 180134Z 16013KT 20/01 A2975 RMK A01 T01970012  RH  029%=      5-min Rain = 0
KPD4 180135Z 16013KT 20/01 A2975 RMK A01 T01960012  RH  029%=      5-min Rain = 0
KPD4 180136Z 16014G19KT 20/01 A2975 RMK A01 T01960012  RH  029%=      5-min Rain = 0
KPD4 180137Z 16014KT 20/01 A2975 RMK A01 T01960012  RH  029%=      5-min Rain = 0
KPD4 180138Z 16014KT 20/01 A2975 RMK A01 T01950011  RH  029%=      5-min Rain = 0
KPD4 180139Z 16014KT 20/01 A2975 RMK A01 T01950011  RH  029%=      5-min Rain = 0
KPD4 180140Z 16014KT 20/01 A2975 RMK A01 T01950011  RH  029%=      5-min Rain = 0
KPD4 180141Z 16014KT 19/01 A2975 RMK A01 T01940011  RH  029%=      5-min Rain = 0
KPD4 180142Z 16014KT 19/01 A2975 RMK A01 T01940011  RH  029%=      5-min Rain = 0
KPD4 180143Z 16014KT 19/01 A2975 RMK A01 T01930011  RH  030%=      5-min Rain = 0
KPD4 180144Z 17012KT 19/01 A2975 RMK A01 T01940011  RH  030%=      5-min Rain = 0
KPD4 180145Z 17012KT 19/01 A2975 RMK A01 T01930012  RH  030%=      5-min Rain = 0
KPD4 180146Z 16013KT 19/01 A2975 RMK A01 T01920011  RH  030%=      5-min Rain = 0
KPD4 180147Z 17013KT 19/01 A2975 RMK A01 T01910012  RH  030%=      5-min Rain = 0
KPD4 180148Z 16013KT 19/01 A2975 RMK A01 T01910012  RH  030%=      5-min Rain = 0
KPD4 180149Z 16015KT 19/01 A2975 RMK A01 T01910012  RH  030%=      5-min Rain = 0
KPD4 180150Z 16015KT 19/01 A2975 RMK A01 T01910012  RH  030%=      5-min Rain = 0
KPD4 180151Z 16013KT 19/01 A2975 RMK A01 T01910013  RH  030%=      5-min Rain = 0
KPD4 180152Z 16014KT 19/01 A2975 RMK A01 T01900013  RH  030%=      5-min Rain = 0
KPD4 180153Z 16014KT 19/01 A2975 RMK A01 T01900013  RH  031%=      5-min Rain = 0
KPD4 180154Z 16016KT 19/01 A2975 RMK A01 T01900013  RH  031%=      5-min Rain = 0
KPD4 180155Z 17015KT 19/01 A2975 RMK A01 T01900013  RH  031%=      5-min Rain = 0
KPD4 180156Z 16017KT 19/01 A2975 RMK A01 T01900013  RH  030%=      5-min Rain = 0
KPD4 180157Z 16015KT 19/01 A2975 RMK A01 T01900013  RH  031%=      5-min Rain = 0
KPD4 180158Z 16015KT 19/01 A2975 RMK A01 T01900013  RH  031%=      5-min Rain = 0
KPD4 180159Z 16014KT 19/01 A2975 RMK A01 T01890014  RH  031%=      5-min Rain = 0
KPD4 180200Z 17015KT 19/01 A2975 RMK A01 T01890014  RH  031%=      5-min Rain = 0
KPD4 180201Z 17018KT 19/01 A2974 RMK A01 T01880014  RH  031%=      5-min Rain = 0
KPD4 180202Z 16014KT 19/01 A2975 RMK A01 T01890014  RH  031%=      5-min Rain = 0
KPD4 180203Z 17014KT 19/01 A2975 RMK A01 T01890014  RH  031%=      5-min Rain = 0
KPD4 180204Z 17017KT 19/01 A2974 RMK A01 T01880014  RH  031%=      5-min Rain = 0
KPD4 180205Z 16016G21KT 19/01 A2974 RMK A01 T01880014  RH  031%=      5-min Rain = 0
KPD4 180206Z 17017KT 19/01 A2974 RMK A01 T01890014  RH  031%=      5-min Rain = 0
KPD4 180207Z 16016G21KT 19/01 A2974 RMK A01 T01890014  RH  031%=      5-min Rain = 0
KPD4 180208Z 17018G23KT 19/02 A2974 RMK A01 T01890015  RH  031%=      5-min Rain = 0
KPD4 180209Z 16017KT 19/02 A2974 RMK A01 T01880015  RH  031%=      5-min Rain = 0
KPD4 180210Z 16017KT 19/02 A2974 RMK A01 T01880015  RH  031%=      5-min Rain = 0
KPD4 180211Z 17014KT 19/02 A2974 RMK A01 T01880016  RH  031%=      5-min Rain = 0
KPD4 180212Z 17016G22KT 19/02 A2974 RMK A01 T01870016  RH  032%=      5-min Rain = 0
KPD4 180213Z 16019KT 19/02 A2974 RMK A01 T01870016  RH  032%=      5-min Rain = 0
KPD4 180214Z 17019KT 19/02 A2974 RMK A01 T01880017  RH  032%=      5-min Rain = 0
KPD4 180215Z 17018KT 19/02 A2974 RMK A01 T01890017  RH  032%=      5-min Rain = 0
KPD4 180216Z 17016G22KT 19/02 A2974 RMK A01 T01890018  RH  032%=      5-min Rain = 0
KPD4 180217Z 17016KT 19/02 A2974 RMK A01 T01880018  RH  032%=      5-min Rain = 0
KPD4 180218Z 16018KT 19/02 A2974 RMK A01 T01880018  RH  032%=      5-min Rain = 0
KPD4 180219Z 16016KT 19/02 A2974 RMK A01 T01880019  RH  032%=      5-min Rain = 0
KPD4 180220Z 16017G22KT 19/02 A2974 RMK A01 T01870019  RH  032%=      5-min Rain = 0
KPD4 180221Z 16017KT 19/02 A2974 RMK A01 T01870019  RH  032%=      5-min Rain = 0
KPD4 180222Z 16018KT 19/02 A2974 RMK A01 T01870019  RH  033%=      5-min Rain = 0
KPD4 180223Z 16018KT 19/02 A2974 RMK A01 T01870019  RH  033%=      5-min Rain = 0
KPD4 180224Z 16017KT 19/02 A2974 RMK A01 T01870020  RH  033%=      5-min Rain = 0
KPD4 180225Z 17017KT 19/02 A2974 RMK A01 T01870020  RH  033%=      5-min Rain = 0
KPD4 180226Z 16016KT 19/02 A2974 RMK A01 T01870020  RH  033%=      5-min Rain = 0
KPD4 180227Z 17018G23KT 19/02 A2974 RMK A01 T01860020  RH  033%=      5-min Rain = 0
KPD4 180228Z 17019KT 19/02 A2974 RMK A01 T01860021  RH  033%=      5-min Rain = 0
KPD4 180229Z 17018G24KT 19/02 A2974 RMK A01 T01860020  RH  033%=      5-min Rain = 0
KPD4 180230Z 17017KT 19/02 A2974 RMK A01 T01860021  RH  033%=      5-min Rain = 0
KPD4 180231Z 16019KT 19/02 A2974 RMK A01 T01860022  RH  033%=      5-min Rain = 0
KPD4 180232Z 17017KT 19/02 A2974 RMK A01 T01860022  RH  033%=      5-min Rain = 0
KPD4 180233Z 17018KT 19/02 A2974 RMK A01 T01860022  RH  033%=      5-min Rain = 0
KPD4 180234Z 16017KT 19/02 A2974 RMK A01 T01850022  RH  034%=      5-min Rain = 0
KPD4 180235Z 16016KT 19/02 A2974 RMK A01 T01850023  RH  034%=      5-min Rain = 0
KPD4 180236Z 17017G22KT 18/02 A2974 RMK A01 T01840023  RH  034%=      5-min Rain = 0
KPD4 180237Z 17019KT 18/02 A2974 RMK A01 T01830023  RH  034%=      5-min Rain = 0
KPD4 180238Z 17018G23KT 18/02 A2974 RMK A01 T01840023  RH  034%=      5-min Rain = 0
KPD4 180239Z 17019KT 18/02 A2974 RMK A01 T01840023  RH  034%=      5-min Rain = 0
KPD4 180240Z 17016KT 18/02 A2974 RMK A01 T01840024  RH  034%=      5-min Rain = 0
KPD4 180241Z 17019KT 18/02 A2974 RMK A01 T01840024  RH  034%=      5-min Rain = 0
KPD4 180242Z 17020KT 19/03 A2974 RMK A01 T01850025  RH  034%=      5-min Rain = 0
KPD4 180243Z 17018KT 19/03 A2974 RMK A01 T01860025  RH  034%=      5-min Rain = 0
KPD4 180244Z 17020G26KT 19/03 A2974 RMK A01 T01860025  RH  034%=      5-min Rain = 0
KPD4 180245Z 17017KT 19/03 A2974 RMK A01 T01850025  RH  034%=      5-min Rain = 0
KPD4 180246Z 17017G22KT 19/03 A2974 RMK A01 T01850026  RH  034%=      5-min Rain = 0
KPD4 180247Z 17018G23KT 19/03 A2974 RMK A01 T01850026  RH  035%=      5-min Rain = 0
KPD4 180248Z 17019G24KT 19/03 A2974 RMK A01 T01850027  RH  035%=      5-min Rain = 0
KPD4 180249Z 17018KT 19/03 A2974 RMK A01 T01850027  RH  035%=      5-min Rain = 0
KPD4 180250Z 17018KT 19/03 A2974 RMK A01 T01850027  RH  035%=      5-min Rain = 0
KPD4 180251Z 17019KT 18/03 A2974 RMK A01 T01840027  RH  035%=      5-min Rain = 0
KPD4 180252Z 16017KT 18/03 A2974 RMK A01 T01840028  RH  035%=      5-min Rain = 0
KPD4 180253Z 17017KT 18/03 A2974 RMK A01 T01840028  RH  035%=      5-min Rain = 0
KPD4 180254Z 17016KT 18/03 A2974 RMK A01 T01830028  RH  036%=      5-min Rain = 0
KPD4 180255Z 17019KT 18/03 A2974 RMK A01 T01830029  RH  036%=      5-min Rain = 0
KPD4 180256Z 16018G24KT 18/03 A2974 RMK A01 T01830029  RH  036%=      5-min Rain = 0
KPD4 180257Z 17017KT 18/03 A2974 RMK A01 T01830030  RH  036%=      5-min Rain = 0
KPD4 180258Z 17018KT 18/03 A2974 RMK A01 T01830030  RH  036%=      5-min Rain = 0
KPD4 180259Z 17018G23KT 18/03 A2974 RMK A01 T01830031  RH  036%=      5-min Rain = 0
KPD4 180300Z 17020KT 18/03 A2974 RMK A01 T01830031  RH  036%=      5-min Rain = 0
KPD4 180301Z 16020KT 18/03 A2974 RMK A01 T01840032  RH  036%=      5-min Rain = 0
KPD4 180302Z 17020KT 18/03 A2974 RMK A01 T01840032  RH  036%=      5-min Rain = 0
KPD4 180303Z 17018G24KT 18/03 A2974 RMK A01 T01840032  RH  036%=      5-min Rain = 0
KPD4 180304Z 17019KT 18/03 A2974 RMK A01 T01830032  RH  037%=      5-min Rain = 0
KPD4 180305Z 17019KT 18/03 A2974 RMK A01 T01830033  RH  037%=      5-min Rain = 0
KPD4 180306Z 17020KT 18/03 A2974 RMK A01 T01830033  RH  037%=      5-min Rain = 0
KPD4 180307Z 17017KT 18/03 A2974 RMK A01 T01830034  RH  037%=      5-min Rain = 0
KPD4 180308Z 17019G24KT 18/03 A2974 RMK A01 T01820034  RH  037%=      5-min Rain = 0
KPD4 180309Z 17017KT 18/04 A2974 RMK A01 T01820035  RH  037%=      5-min Rain = 0
KPD4 180310Z 17016KT 18/04 A2974 RMK A01 T01830035  RH  037%=      5-min Rain = 0
KPD4 180311Z 17018KT 18/04 A2974 RMK A01 T01820035  RH  038%=      5-min Rain = 0
KPD4 180312Z 17016KT 18/04 A2974 RMK A01 T01820036  RH  038%=      5-min Rain = 0
KPD4 180313Z 16017KT 18/04 A2974 RMK A01 T01810036  RH  038%=      5-min Rain = 0
KPD4 180314Z 17019G24KT 18/04 A2974 RMK A01 T01810036  RH  038%=      5-min Rain = 0
KPD4 180315Z 17017KT 18/04 A2974 RMK A01 T01810037  RH  038%=      5-min Rain = 0
KPD4 180316Z 17017KT 18/04 A2974 RMK A01 T01810037  RH  038%=      5-min Rain = 0
KPD4 180317Z 16019KT 18/04 A2974 RMK A01 T01810037  RH  039%=      5-min Rain = 0
KPD4 180318Z 17021G26KT 18/04 A2974 RMK A01 T01810038  RH  039%=      5-min Rain = 0
KPD4 180319Z 17017KT 18/04 A2974 RMK A01 T01810038  RH  039%=      5-min Rain = 0
KPD4 180320Z 17016KT 18/04 A2974 RMK A01 T01810038  RH  039%=      5-min Rain = 0
KPD4 180321Z 17017G22KT 18/04 A2974 RMK A01 T01800038  RH  039%=      5-min Rain = 0
KPD4 180322Z 16019G24KT 18/04 A2974 RMK A01 T01800039  RH  039%=      5-min Rain = 0
KPD4 180323Z 17016KT 18/04 A2975 RMK A01 T01810039  RH  039%=      5-min Rain = 0
KPD4 180324Z 17018G24KT 18/04 A2975 RMK A01 T01800039  RH  039%=      5-min Rain = 0
KPD4 180325Z 17016KT 18/04 A2975 RMK A01 T01800040  RH  039%=      5-min Rain = 0
KPD4 180326Z 17018KT 18/04 A2975 RMK A01 T01800040  RH  039%=      5-min Rain = 0
KPD4 180327Z 17014G19KT 18/04 A2975 RMK A01 T01790040  RH  040%=      5-min Rain = 0
KPD4 180328Z 17017G23KT 18/04 A2974 RMK A01 T01790040  RH  040%=      5-min Rain = 0
KPD4 180329Z 17018KT 18/04 A2975 RMK A01 T01790041  RH  040%=      5-min Rain = 0
KPD4 180330Z 16022KT 18/04 A2974 RMK A01 T01800042  RH  040%=      5-min Rain = 0
KPD4 180331Z 16018KT 18/04 A2975 RMK A01 T01810042  RH  040%=      5-min Rain = 0
KPD4 180332Z 17019G27KT 18/04 A2974 RMK A01 T01810041  RH  040%=      5-min Rain = 0
KPD4 180333Z 17018KT 18/04 A2974 RMK A01 T01810042  RH  040%=      5-min Rain = 0
KPD4 180334Z 17018KT 18/04 A2975 RMK A01 T01810042  RH  040%=      5-min Rain = 0
KPD4 180335Z 17018G23KT 18/04 A2974 RMK A01 T01800042  RH  040%=      5-min Rain = 0
KPD4 180336Z 17016KT 18/04 A2975 RMK A01 T01800043  RH  040%=      5-min Rain = 0
KPD4 180337Z 17016KT 18/04 A2975 RMK A01 T01790043  RH  040%=      5-min Rain = 0
KPD4 180338Z 17016KT 18/04 A2974 RMK A01 T01790043  RH  041%=      5-min Rain = 0
KPD4 180339Z 17015KT 18/04 A2975 RMK A01 T01780043  RH  041%=      5-min Rain = 0
KPD4 180340Z 17017G22KT 18/04 A2975 RMK A01 T01780043  RH  041%=      5-min Rain = 0
KPD4 180341Z 17017KT 18/04 A2975 RMK A01 T01770044  RH  041%=      5-min Rain = 0
KPD4 180342Z 17016G21KT 18/04 A2975 RMK A01 T01770044  RH  041%=      5-min Rain = 0
KPD4 180343Z 18018KT 18/04 A2975 RMK A01 T01770044  RH  042%=      5-min Rain = 0
KPD4 180344Z 17019G24KT 18/05 A2975 RMK A01 T01770045  RH  042%=      5-min Rain = 0
KPD4 180345Z 17016KT 18/05 A2975 RMK A01 T01770045  RH  041%=      5-min Rain = 0
KPD4 180346Z 17018KT 18/05 A2975 RMK A01 T01770045  RH  042%=      5-min Rain = 0
KPD4 180347Z 17017KT 18/05 A2975 RMK A01 T01770045  RH  042%=      5-min Rain = 0
KPD4 180348Z 17017KT 18/05 A2975 RMK A01 T01760045  RH  042%=      5-min Rain = 0
KPD4 180349Z 17015G22KT 18/05 A2975 RMK A01 T01760045  RH  042%=      5-min Rain = 0
KPD4 180350Z 17019KT 18/05 A2975 RMK A01 T01760045  RH  042%=      5-min Rain = 0
KPD4 180351Z 17019G26KT 18/05 A2975 RMK A01 T01760046  RH  042%=      5-min Rain = 0
KPD4 180352Z 17019G25KT 18/05 A2975 RMK A01 T01760046  RH  042%=      5-min Rain = 0
KPD4 180353Z 17017G22KT 18/05 A2975 RMK A01 T01760046  RH  042%=      5-min Rain = 0
KPD4 180354Z 18015KT 18/05 A2975 RMK A01 T01760046  RH  042%=      5-min Rain = 0
KPD4 180355Z 17021G27KT 18/05 A2975 RMK A01 T01750046  RH  042%=      5-min Rain = 0
KPD4 180356Z 18019KT 18/05 A2975 RMK A01 T01760046  RH  042%=      5-min Rain = 0
KPD4 180357Z 17021KT 18/05 A2975 RMK A01 T01760046  RH  042%=      5-min Rain = 0
KPD4 180358Z 17018G23KT 18/05 A2975 RMK A01 T01770047  RH  042%=      5-min Rain = 0
KPD4 180359Z 17020KT 18/05 A2975 RMK A01 T01770047  RH  042%=      5-min Rain = 0
KPD4 180400Z 17020KT 18/05 A2975 RMK A01 T01770047  RH  042%=      5-min Rain = 0
KPD4 180401Z 17023G28KT 18/05 A2975 RMK A01 T01770046  RH  042%=      5-min Rain = 0
KPD4 180402Z 18021KT 18/05 A2975 RMK A01 T01780047  RH  042%=      5-min Rain = 0
KPD4 180403Z 17021KT 18/05 A2975 RMK A01 T01780047  RH  042%=      5-min Rain = 0
KPD4 180404Z 17019KT 18/05 A2975 RMK A01 T01780047  RH  042%=      5-min Rain = 0
KPD4 180405Z 17019G25KT 18/05 A2975 RMK A01 T01780047  RH  042%=      5-min Rain = 0
KPD4 180406Z 17018KT 18/05 A2975 RMK A01 T01770047  RH  042%=      5-min Rain = 0
KPD4 180407Z 17016G21KT 18/05 A2975 RMK A01 T01760047  RH  042%=      5-min Rain = 0
KPD4 180408Z 17016KT 18/05 A2975 RMK A01 T01750047  RH  043%=      5-min Rain = 0
KPD4 180409Z 17018KT 18/05 A2975 RMK A01 T01750047  RH  043%=      5-min Rain = 0
KPD4 180410Z 17016KT 18/05 A2975 RMK A01 T01750047  RH  043%=      5-min Rain = 0
KPD4 180411Z 17016KT 17/05 A2975 RMK A01 T01740047  RH  043%=      5-min Rain = 0
KPD4 180412Z 17019G24KT 17/05 A2975 RMK A01 T01730047  RH  043%=      5-min Rain = 0
KPD4 180413Z 17020G25KT 17/05 A2974 RMK A01 T01740047  RH  043%=      5-min Rain = 0
KPD4 180414Z 17018G26KT 17/05 A2974 RMK A01 T01740047  RH  043%=      5-min Rain = 0
KPD4 180415Z 17020G26KT 17/05 A2974 RMK A01 T01740047  RH  043%=      5-min Rain = 0
KPD4 180416Z 18017KT 18/05 A2975 RMK A01 T01750047  RH  043%=      5-min Rain = 0
KPD4 180417Z 17019G24KT 17/05 A2975 RMK A01 T01740047  RH  043%=      5-min Rain = 0
KPD4 180418Z 17022KT 17/05 A2974 RMK A01 T01740047  RH  043%=      5-min Rain = 0
KPD4 180419Z 17018KT 17/05 A2974 RMK A01 T01740046  RH  043%=      5-min Rain = 0
KPD4 180420Z 17017G22KT 17/05 A2975 RMK A01 T01740046  RH  043%=      5-min Rain = 0
KPD4 180421Z 17020KT 17/05 A2975 RMK A01 T01730046  RH  043%=      5-min Rain = 0
KPD4 180422Z 17020G25KT 17/05 A2974 RMK A01 T01730046  RH  043%=      5-min Rain = 0
KPD4 180423Z 17019KT 17/05 A2975 RMK A01 T01730046  RH  043%=      5-min Rain = 0
KPD4 180424Z 18020G25KT 17/05 A2974 RMK A01 T01740046  RH  043%=      5-min Rain = 0
KPD4 180425Z 18017KT 17/05 A2975 RMK A01 T01730046  RH  043%=      5-min Rain = 0
KPD4 180426Z 17019KT 17/05 A2974 RMK A01 T01730046  RH  043%=      5-min Rain = 0
KPD4 180427Z 17019KT 17/05 A2975 RMK A01 T01720046  RH  043%=      5-min Rain = 0
KPD4 180428Z 17019G25KT 17/05 A2975 RMK A01 T01730046  RH  043%=      5-min Rain = 0
KPD4 180429Z 17019G24KT 17/05 A2975 RMK A01 T01730046  RH  043%=      5-min Rain = 0
KPD4 180430Z 17019KT 17/05 A2975 RMK A01 T01730046  RH  043%=      5-min Rain = 0
KPD4 180431Z 17016G21KT 17/05 A2975 RMK A01 T01730046  RH  043%=      5-min Rain = 0
KPD4 180432Z 17022KT 17/05 A2975 RMK A01 T01720045  RH  043%=      5-min Rain = 0
KPD4 180433Z 17020KT 17/05 A2975 RMK A01 T01720045  RH  043%=      5-min Rain = 0
KPD4 180434Z 17021G26KT 17/05 A2975 RMK A01 T01720045  RH  043%=      5-min Rain = 0
KPD4 180435Z 18019G24KT 17/04 A2975 RMK A01 T01730044  RH  043%=      5-min Rain = 0
KPD4 180436Z 18019KT 17/04 A2975 RMK A01 T01730044  RH  042%=      5-min Rain = 0
KPD4 180437Z 17017KT 17/04 A2975 RMK A01 T01720044  RH  043%=      5-min Rain = 0
KPD4 180438Z 17016G22KT 17/04 A2975 RMK A01 T01710044  RH  043%=      5-min Rain = 0
KPD4 180439Z 17018KT 17/04 A2975 RMK A01 T01700044  RH  043%=      5-min Rain = 0
KPD4 180440Z 17018KT 17/04 A2974 RMK A01 T01710044  RH  043%=      5-min Rain = 0
KPD4 180441Z 17016G22KT 17/04 A2975 RMK A01 T01710043  RH  043%=      5-min Rain = 0
KPD4 180442Z 17015KT 17/04 A2975 RMK A01 T01700043  RH  043%=      5-min Rain = 0
KPD4 180443Z 17017G22KT 17/04 A2975 RMK A01 T01690043  RH  043%=      5-min Rain = 0
KPD4 180444Z 17018KT 17/04 A2975 RMK A01 T01690043  RH  043%=      5-min Rain = 0
KPD4 180445Z 17017KT 17/04 A2975 RMK A01 T01690042  RH  043%=      5-min Rain = 0
KPD4 180446Z 17017G23KT 17/04 A2975 RMK A01 T01700042  RH  043%=      5-min Rain = 0
KPD4 180447Z 17018G23KT 17/04 A2975 RMK A01 T01700041  RH  042%=      5-min Rain = 0
KPD4 180448Z 18019KT 17/04 A2974 RMK A01 T01700041  RH  042%=      5-min Rain = 0
KPD4 180449Z 18017G22KT 17/04 A2975 RMK A01 T01710040  RH  042%=      5-min Rain = 0
KPD4 180450Z 17019KT 17/04 A2975 RMK A01 T01710040  RH  042%=      5-min Rain = 0
KPD4 180451Z 18017KT 17/04 A2975 RMK A01 T01710040  RH  042%=      5-min Rain = 0
KPD4 180452Z 17020G26KT 17/04 A2975 RMK A01 T01710039  RH  042%=      5-min Rain = 0
KPD4 180453Z 18019KT 17/04 A2975 RMK A01 T01710039  RH  041%=      5-min Rain = 0
KPD4 180454Z 17016KT 17/04 A2975 RMK A01 T01710038  RH  041%=      5-min Rain = 0
KPD4 180455Z 18022KT 17/04 A2975 RMK A01 T01700038  RH  041%=      5-min Rain = 0
KPD4 180456Z 18018G23KT 17/04 A2975 RMK A01 T01710037  RH  041%=      5-min Rain = 0
KPD4 180457Z 18020G25KT 17/04 A2975 RMK A01 T01710037  RH  041%=      5-min Rain = 0
KPD4 180458Z 18018KT 17/04 A2975 RMK A01 T01700037  RH  041%=      5-min Rain = 0
KPD4 180459Z 18017G22KT 17/04 A2975 RMK A01 T01700036  RH  041%=      5-min Rain = 0

Page generated in 0.1215 seconds.